
Distance (Route):
Temperature : -51°C
Humidity : 0%
Pressure : 59hPa| Receiver | Date | Latitude | Longitude | Direction | Speed | Altitude | Climb | Temperature | Humidity | Pressure | Voltage | Killtimer | Uptime | BKT | XDATA |
|---|---|---|---|---|---|---|---|---|---|---|---|---|---|---|---|
| AA1-15 | 2026-08-31 13:07:19 | 54.92095 | 19.89981 | 271° | 15km/h | 2116m | 8.1m/s | -51°C | 0% | 59hPa | 2.2V | 00:00:00 | 00:00:00 | 00:00:00 | |
| AA1-15 | 2026-08-31 13:06:43 | 54.92088 | 19.90219 | 268° | 15km/h | 1838m | 8m/s | -52.4°C | 0% | 50hPa | 2.3V | 00:00:00 | 00:00:00 | 00:00:00 | |
| AA1-15 | 2026-08-31 13:06:40 | 54.92088 | 19.90243 | 271° | 13km/h | 1827m | 8.2m/s | -52.7°C | 0% | 49.3hPa | 2.3V | 00:00:00 | 00:00:00 | 00:00:00 | |
| AA1-15 | 2026-08-31 13:06:29 | 54.92102 | 19.90346 | 273° | 13km/h | 1763m | 7.9m/s | -52.8°C | 0% | 46.6hPa | 2.3V | 00:00:00 | 00:00:00 | 00:00:00 | |
| AA1-15 | 2026-08-31 13:06:24 | 54.92107 | 19.90344 | 270° | 15km/h | 1723m | 8.2m/s | -52.4°C | 0% | 45.4hPa | 2.3V | 00:00:00 | 00:00:00 | 00:00:00 | |
| AA1-15 | 2026-08-31 13:06:16 | 54.92150 | 19.90579 | 239° | 93km/h | 1656m | 8.6m/s | -52.7°C | 0% | 43.6hPa | 2.3V | 00:00:00 | 00:00:00 | 00:00:00 | |
| AA1-15 | 2026-08-31 13:06:09 | 54.92284 | 19.90750 | 193° | 99km/h | 1599m | 8.2m/s | -52.8°C | 0% | 42.1hPa | 2.3V | 00:00:00 | 00:00:00 | 00:00:00 | |
| AA1-15 | 2026-08-31 13:05:37 | 54.92353 | 19.90001 | 360° | 93km/h | 1419m | 8.1m/s | -52.6°C | 0% | 35.7hPa | 2.3V | 00:00:00 | 00:00:00 | 00:00:00 | |
| AA1-15 | 2026-08-31 13:05:31 | 54.92204 | 19.89991 | 0° | 102km/h | 1351m | 7.7m/s | -52.8°C | 0% | 34.6hPa | 2.3V | 00:00:00 | 00:00:00 | 00:00:00 | |
| AA1-15 | 2026-08-31 13:05:22 | 54.91989 | 19.89980 | 0° | 100km/h | 1254m | 8.5m/s | -51.8°C | 0% | 33hPa | 2.3V | 00:00:00 | 00:00:00 | 00:00:00 | |
| AA1-15 | 2026-08-31 13:04:51 | 54.91994 | 19.90403 | 270° | 95km/h | 1160m | 8.4m/s | -51.9°C | 0% | 27.7hPa | 2.3V | 00:00:00 | 00:00:00 | 00:00:00 | |
| AA1-15 | 2026-08-31 13:04:46 | 54.92077 | 19.90717 | 246° | 95km/h | 1398m | 7.1m/s | -51.5°C | 0% | 26.9hPa | 2.4V | 00:00:00 | 00:00:00 | 00:00:00 | |
| AA1-15 | 2026-08-31 13:04:39 | 54.91719 | 19.91580 | 146° | 82km/h | 159087m | -3.7m/s | -51.2°C | 0% | 25.9hPa | 2.4V | 00:00:00 | 00:00:00 | 00:00:00 | |
| AA1-15 | 2026-08-31 13:04:18 | 54.88343 | 20.04053 | 359° | 11km/h | 2903m | 8m/s | -50.8°C | 0% | 22.9hPa | 2.3V | 00:00:00 | 00:00:00 | 00:00:00 | |
| AA1-15 | 2026-08-31 13:03:56 | 54.88242 | 20.04039 | 1° | 16km/h | 2683m | 8.6m/s | -49.5°C | 0% | 19.9hPa | 2.4V | 00:00:00 | 00:00:00 | 00:00:00 | |
| AA1-15 | 2026-08-31 13:03:45 | 54.88203 | 20.04040 | 356° | 15km/h | 2572m | 8.2m/s | -48.3°C | 0% | 18.6hPa | 2.4V | 00:00:00 | 00:00:00 | 00:00:00 | |
| AA1-15 | 2026-08-31 13:03:35 | 54.88185 | 20.04029 | 351° | 15km/h | 159087m | 10.9m/s | -48.1°C | 0% | 17.4hPa | 2.3V | 00:00:00 | 00:00:00 | 00:00:00 | |
| AA1-15 | 2026-08-31 13:03:26 | 54.88148 | 20.04029 | 360° | 16km/h | 2498m | 8.2m/s | -47.1°C | 0% | 16.1hPa | 2.3V | 00:00:00 | 00:00:00 | 00:00:00 | |
| AA1-15 | 2026-08-31 13:03:13 | 54.88095 | 20.04055 | 0° | 18km/h | 2406m | 8.1m/s | -46.4°C | 0% | 15hPa | 2.3V | 00:00:00 | 00:00:00 | 00:00:00 | |
| AA1-15 | 2026-08-31 13:03:03 | 54.88048 | 20.04044 | 1° | 16km/h | 2302m | 8.2m/s | -46.1°C | 0% | 13.9hPa | 2.4V | 00:00:00 | 00:00:00 | 00:00:00 | |
| AA1-15 | 2026-08-31 13:02:52 | 54.88005 | 20.04045 | 7° | 13km/h | 2180m | 9.3m/s | -45.1°C | 0% | 12.8hPa | 2.4V | 00:00:00 | 00:00:00 | 00:00:00 | |
| AA1-15 | 2026-08-31 13:02:42 | 54.87988 | 20.04054 | 3° | 13km/h | 2067m | 9.2m/s | -45°C | 0% | 11.9hPa | 2.4V | 00:00:00 | 00:00:00 | 00:00:00 | |
| AA1-15 | 2026-08-31 13:02:31 | 54.87957 | 20.04058 | 0° | 16km/h | 1968m | 7.5m/s | -43.4°C | 0% | 10.8hPa | 2.3V | 00:00:00 | 00:00:00 | 00:00:00 | |
| AA1-15 | 2026-08-31 13:02:17 | 54.87785 | 20.04081 | 353° | 97km/h | 1845m | 8.2m/s | -43.3°C | 0% | 9.5hPa | 2.3V | 00:00:00 | 00:00:00 | 00:00:00 | |
| AA1-15 | 2026-08-31 13:01:41 | 54.87091 | 20.04881 | 299° | 95km/h | 1676m | 7.9m/s | -40.1°C | 0% | 6.8hPa | 2.3V | 00:00:00 | 00:00:00 | 00:00:00 | |
| AA1-15 | 2026-08-31 13:01:33 | 54.87030 | 20.05204 | 284° | 97km/h | 1600m | 8m/s | -39.9°C | 0% | 6.3hPa | 2.3V | 00:00:00 | 00:00:00 | 00:00:00 | |
| AA1-15 | 2026-08-31 13:01:21 | 54.87000 | 20.05697 | 266° | 97km/h | 1481m | 8.4m/s | -38.3°C | 0% | 5.5hPa | 2.3V | 00:00:00 | 00:00:00 | 00:00:00 | |
| AA1-15 | 2026-08-31 12:59:40 | 54.88778 | 20.06058 | 107° | 95km/h | 615m | 8m/s | -31.3°C | 0% | 3.9hPa | 2.3V | 00:00:00 | 00:00:00 | 00:00:00 | |
| AA1-15 | 2026-08-31 12:59:37 | 54.88797 | 20.05936 | 101° | 99km/h | 586m | 8.1m/s | -31.3°C | 0% | 3.9hPa | 2.3V | 00:00:00 | 00:00:00 | 00:00:00 | |
| AA1-15 | 2026-08-31 12:59:20 | 54.88777 | 20.05220 | 77° | 97km/h | 428m | 8m/s | -31.9°C | 0% | 4hPa | 2.3V | 00:00:00 | 00:00:00 | 00:00:00 | |
| AA1-15 | 2026-08-31 12:58:43 | 55.30441 | 20.36265 | 15° | 212km/h | 159087m | 14.4m/s | -32.5°C | 0% | 4.2hPa | 2.3V | 00:00:00 | 00:00:00 | 00:00:00 | |
| AA1-15 | 2026-08-31 12:58:22 | 59.71168 | 24.01539 | 0° | 0km/h | 159087m | 0m/s | -33.6°C | 0% | 4.4hPa | 2.4V | 00:00:00 | 00:00:00 | 00:00:00 | |
| AA1-15 | 2026-08-31 12:58:11 | 59.71168 | 24.01539 | 0° | 0km/h | 159087m | 0m/s | -33.7°C | 0% | 4.4hPa | 2.3V | 00:00:00 | 00:00:00 | 00:00:00 | |
| AA1-15 | 2026-08-31 12:57:38 | 54.92337 | 19.90754 | 176° | 95km/h | 1504m | 7.9m/s | -34.1°C | 0% | 4.6hPa | 2.3V | 00:00:00 | 00:00:00 | 00:00:00 | |
| AA1-15 | 2026-08-31 12:57:27 | 54.92474 | 19.90496 | 174° | 237km/h | 1420m | 7.3m/s | -34.4°C | 0% | 4.7hPa | 2.3V | 00:00:00 | 00:00:00 | 00:00:00 | |
| AA1-15 | 2026-08-31 12:57:24 | 54.92581 | 19.90342 | 86° | 97km/h | 1400m | 8.1m/s | -34.6°C | 0% | 4.7hPa | 2.4V | 00:00:00 | 00:00:00 | 00:00:00 | |
| AA1-15 | 2026-08-31 12:57:20 | 54.92575 | 19.90257 | 74° | 95km/h | 1380m | 8m/s | -34.7°C | 0% | 4.8hPa | 2.3V | 00:00:00 | 00:00:00 | 00:00:00 | |
| AA1-15 | 2026-08-31 12:57:18 | 54.92554 | 19.90177 | 60° | 93km/h | 1363m | 8m/s | -34.9°C | 0% | 4.8hPa | 2.3V | 00:00:00 | 00:00:00 | 00:00:00 | |
| AA1-15 | 2026-08-31 12:57:17 | 54.92541 | 19.90142 | 54° | 95km/h | 1352m | 8m/s | -35°C | 0% | 4.8hPa | 2.3V | 00:00:00 | 00:00:00 | 00:00:00 | |
| AA1-15 | 2026-08-31 12:57:11 | 54.92401 | 19.89980 | 13° | 99km/h | 1280m | 8m/s | -34.9°C | 0% | 4.8hPa | 2.4V | 00:00:00 | 00:00:00 | 00:00:00 | |
| AA1-15 | 2026-08-31 12:57:06 | 54.92253 | 19.89970 | 360° | 100km/h | 1233m | 8.1m/s | -34.8°C | 0% | 4.9hPa | 2.4V | 00:00:00 | 00:00:00 | 00:00:00 | |
| AA1-15 | 2026-08-31 12:56:56 | 54.92063 | 19.89968 | 0° | 95km/h | 1166m | 8.1m/s | -35°C | 0% | 5hPa | 2.3V | 00:00:00 | 00:00:00 | 00:00:00 | |
| AA1-15 | 2026-08-31 12:56:45 | 54.91821 | 19.89861 | 80° | 99km/h | 1072m | 7.9m/s | -35.5°C | 0% | 5hPa | 2.3V | 00:00:00 | 00:00:00 | 00:00:00 | |
| AA1-15 | 2026-08-31 12:56:31 | 54.91973 | 19.89985 | 270° | 95km/h | 924m | 8m/s | -36°C | 0% | 5.1hPa | 2.4V | 00:00:00 | 00:00:00 | 00:00:00 | |
| AA1-15 | 2026-08-31 12:56:08 | 54.88451 | 20.04159 | 34° | 44km/h | 159087m | 6.9m/s | -36.9°C | 0% | 5.3hPa | 2.4V | 00:00:00 | 00:00:00 | 00:00:00 | |
| AA1-15 | 2026-08-31 12:55:57 | 54.88359 | 20.04058 | 0° | 16km/h | 2863m | 8.2m/s | -37.4°C | 0% | 5.4hPa | 2.4V | 00:00:00 | 00:00:00 | 00:00:00 | |
| AA1-15 | 2026-08-31 12:55:46 | 54.88328 | 20.04067 | 360° | 16km/h | 159087m | 7.9m/s | -37.7°C | 0% | 5.4hPa | 2.4V | 00:00:00 | 00:00:00 | 00:00:00 | |
| AA1-15 | 2026-08-31 12:55:24 | 54.88271 | 20.04070 | 360° | 9km/h | 2589m | 7.9m/s | -38.8°C | 0% | 5.6hPa | 2.4V | 00:00:00 | 00:00:00 | 00:00:00 | |
| AA1-15 | 2026-08-31 12:55:12 | 54.88221 | 20.04057 | 355° | 15km/h | 2524m | 7.6m/s | -39.2°C | 0% | 5.7hPa | 2.4V | 00:00:00 | 00:00:00 | 00:00:00 | |
| AA1-15 | 2026-08-31 12:55:01 | 54.88147 | 20.04020 | 1° | 18km/h | 2449m | 8.1m/s | -39.4°C | 0% | 5.8hPa | 2.4V | 00:00:00 | 00:00:00 | 00:00:00 | |
| AA1-15 | 2026-08-31 12:54:51 | 54.88114 | 20.04020 | 0° | 11km/h | 2359m | 7.8m/s | -39.6°C | 0% | 5.9hPa | 2.3V | 00:00:00 | 00:00:00 | 00:00:00 | |
| AA1-15 | 2026-08-31 12:54:40 | 54.88120 | 20.04033 | 360° | 9km/h | 2239m | 8m/s | -39.9°C | 0% | 6hPa | 2.4V | 00:00:00 | 00:00:00 | 00:00:00 | |
| AA1-15 | 2026-08-31 12:54:29 | 54.88057 | 20.04067 | 0° | 16km/h | 2161m | 8.1m/s | -39.9°C | 0% | 6hPa | 2.4V | 00:00:00 | 00:00:00 | 00:00:00 | |
| AA1-15 | 2026-08-31 12:54:18 | 54.88013 | 20.04066 | 0° | 16km/h | 2074m | 8m/s | -39.5°C | 0% | 6.1hPa | 2.4V | 00:00:00 | 00:00:00 | 00:00:00 | |
| AA1-15 | 2026-08-31 12:54:05 | 54.87963 | 20.04069 | 359° | 16km/h | 1971m | 7.9m/s | -39.8°C | 0% | 6.2hPa | 2.4V | 00:00:00 | 00:00:00 | 00:00:00 | |
| AA1-15 | 2026-08-31 12:54:01 | 54.87950 | 20.04067 | 0° | 16km/h | 1947m | 8m/s | -39.7°C | 0% | 6.3hPa | 2.4V | 00:00:00 | 00:00:00 | 00:00:00 | |
| AA1-15 | 2026-08-31 12:54:01 | 54.87944 | 20.04064 | 0° | 16km/h | 1939m | 8.1m/s | -39.6°C | 0% | 6.3hPa | 2.4V | 00:00:00 | 00:00:00 | 00:00:00 | |
| AA1-15 | 2026-08-31 12:53:51 | 54.87855 | 20.04080 | 358° | 95km/h | 1873m | 8.1m/s | -39.6°C | 0% | 6.3hPa | 2.4V | 00:00:00 | 00:00:00 | 00:00:00 | |
| AA1-15 | 2026-08-31 12:53:38 | 54.87560 | 20.04219 | 334° | 97km/h | 1766m | 8m/s | -39.5°C | 0% | 6.5hPa | 2.4V | 00:00:00 | 00:00:00 | 00:00:00 | |
| AA1-15 | 2026-08-31 12:53:32 | 54.87424 | 20.04336 | 327° | 95km/h | 1712m | 8.1m/s | -39.7°C | 0% | 6.5hPa | 2.4V | 00:00:00 | 00:00:00 | 00:00:00 | |
| AA1-15 | 2026-08-31 12:53:19 | 54.87219 | 20.04673 | 309° | 95km/h | 1607m | 7.9m/s | -39.6°C | 0% | 6.7hPa | 2.4V | 00:00:00 | 00:00:00 | 00:00:00 | |
| AA1-15 | 2026-08-31 12:53:16 | 54.87155 | 20.04755 | 303° | 95km/h | 1580m | 8.1m/s | -39.7°C | 0% | 6.6hPa | 2.4V | 00:00:00 | 00:00:00 | 00:00:00 | |
| AA1-15 | 2026-08-31 12:52:47 | 54.87068 | 20.05945 | 259° | 95km/h | 1281m | 8.1m/s | -39.9°C | 0% | 6.9hPa | 2.4V | 00:00:00 | 00:00:00 | 00:00:00 | |
| AA1-15 | 2026-08-31 12:52:42 | 54.87096 | 20.06136 | 253° | 95km/h | 1236m | 5.8m/s | -40°C | 0% | 7hPa | 2.4V | 00:00:00 | 00:00:00 | 00:00:00 | |
| AA1-15 | 2026-08-31 12:52:35 | 54.87155 | 20.06390 | 238° | 97km/h | 1171m | 8.1m/s | -40°C | 0% | 7hPa | 2.4V | 00:00:00 | 00:00:00 | 00:00:00 | |
| AA1-15 | 2026-08-31 12:52:24 | 54.87331 | 20.06761 | 223° | 95km/h | 1120m | 8m/s | -40°C | 0% | 7.2hPa | 2.4V | 00:00:00 | 00:00:00 | 00:00:00 | |
| AA1-15 | 2026-08-31 12:52:24 | 54.87351 | 20.06789 | 219° | 99km/h | 1111m | 8.1m/s | -39.9°C | 0% | 7.1hPa | 2.4V | 00:00:00 | 00:00:00 | 00:00:00 | |
| AA1-15 | 2026-08-31 12:52:14 | 54.87539 | 20.06993 | 205° | 95km/h | 1036m | 8m/s | -40°C | 0% | 7.2hPa | 2.4V | 00:00:00 | 00:00:00 | 00:00:00 | |
| AA1-15 | 2026-08-31 12:52:04 | 54.87785 | 20.07115 | 189° | 97km/h | 964m | 7.9m/s | -40.4°C | 0% | 7.3hPa | 2.4V | 00:00:00 | 00:00:00 | 00:00:00 | |
| AA1-15 | 2026-08-31 12:52:00 | 54.87886 | 20.07138 | 183° | 93km/h | 936m | 8.2m/s | -40.6°C | 0% | 7.4hPa | 2.4V | 00:00:00 | 00:00:00 | 00:00:00 | |
| AA1-15 | 2026-08-31 12:51:47 | 54.88244 | 20.07023 | 160° | 99km/h | 823m | 8.1m/s | -40.5°C | 0% | 7.5hPa | 2.4V | 00:00:00 | 00:00:00 | 00:00:00 | |
| AA1-15 | 2026-08-31 12:51:41 | 54.88340 | 20.06946 | 152° | 99km/h | 801m | 8m/s | -40.5°C | 0% | 7.6hPa | 2.4V | 00:00:00 | 00:00:00 | 00:00:00 | |
| AA1-15 | 2026-08-31 12:51:33 | 54.88500 | 20.06752 | 141° | 97km/h | 731m | 8m/s | -40.4°C | 0% | 7.7hPa | 2.4V | 00:00:00 | 00:00:00 | 00:00:00 | |
| AA1-15 | 2026-08-31 12:51:30 | 54.88533 | 20.06694 | 136° | 91km/h | 717m | 8m/s | -40.5°C | 0% | 7.7hPa | 2.4V | 00:00:00 | 00:00:00 | 00:00:00 | |
| AA1-15 | 2026-08-31 12:51:25 | 54.88613 | 20.06536 | 128° | 95km/h | 680m | 8m/s | -40.6°C | 0% | 7.8hPa | 2.4V | 00:00:00 | 00:00:00 | 00:00:00 | |
| AA1-15 | 2026-08-31 12:51:16 | 54.88743 | 20.06181 | 115° | 95km/h | 635m | 8.1m/s | -40.5°C | 0% | 7.8hPa | 2.4V | 00:00:00 | 00:00:00 | 00:00:00 | |
| AA1-15 | 2026-08-31 12:51:15 | 54.88752 | 20.06137 | 112° | 95km/h | 631m | 8.2m/s | -40.6°C | 0% | 7.8hPa | 2.4V | 00:00:00 | 00:00:00 | 00:00:00 | |
| AA1-15 | 2026-08-31 12:51:07 | 54.88807 | 20.05831 | 103° | 97km/h | 574m | 8.5m/s | -40.8°C | 0% | 7.9hPa | 2.4V | 00:00:00 | 00:00:00 | 00:00:00 | |
| AA1-15 | 2026-08-31 12:51:04 | 54.88813 | 20.05717 | 97° | 97km/h | 557m | 8.1m/s | -40.7°C | 0% | 8hPa | 2.4V | 00:00:00 | 00:00:00 | 00:00:00 | |
| AA1-15 | 2026-08-31 12:50:57 | 54.88808 | 20.05418 | 85° | 97km/h | 488m | 8m/s | -40.8°C | 0% | 8hPa | 2.4V | 00:00:00 | 00:00:00 | 00:00:00 | |
| AA1-15 | 2026-08-31 12:50:56 | 54.88805 | 20.05376 | 83° | 97km/h | 477m | 7.9m/s | -40.8°C | 0% | 8.1hPa | 2.4V | 00:00:00 | 00:00:00 | 00:00:00 | |
| AA1-15 | 2026-08-31 12:50:49 | 54.88775 | 20.05128 | 74° | 93km/h | 423m | 8.7m/s | -41°C | 0% | 8.1hPa | 2.4V | 00:00:00 | 00:00:00 | 00:00:00 | |
| AA1-15 | 2026-08-31 12:50:46 | 54.88737 | 20.04971 | 66° | 99km/h | 393m | 8.1m/s | -41.5°C | 0% | 8.2hPa | 2.4V | 00:00:00 | 00:00:00 | 00:00:00 | |
| AA1-15 | 2026-08-31 12:50:43 | 54.88704 | 20.04859 | 60° | 97km/h | 368m | 7.9m/s | -41.5°C | 0% | 8.2hPa | 2.4V | 00:00:00 | 00:00:00 | 00:00:00 | |
| AA1-15 | 2026-08-31 12:50:41 | 54.88679 | 20.04787 | 58° | 97km/h | 350m | 8m/s | -41.6°C | 0% | 8.2hPa | 2.4V | 00:00:00 | 00:00:00 | 00:00:00 | |
| AA1-15 | 2026-08-31 12:50:40 | 54.88665 | 20.04752 | 57° | 95km/h | 340m | 7.9m/s | -41.6°C | 0% | 8.2hPa | 2.4V | 00:00:00 | 00:00:00 | 00:00:00 | |
| AA1-15 | 2026-08-31 12:50:39 | 54.88651 | 20.04719 | 54° | 93km/h | 331m | 8m/s | -41.6°C | 0% | 8.2hPa | 2.4V | 00:00:00 | 00:00:00 | 00:00:00 | |
| AA1-15 | 2026-08-31 12:50:37 | 54.88635 | 20.04686 | 52° | 97km/h | 323m | 8.1m/s | -41.6°C | 0% | 8.2hPa | 2.4V | 00:00:00 | 00:00:00 | 00:00:00 | |
| AA1-15 | 2026-08-31 12:50:36 | 54.88618 | 20.04651 | 53° | 99km/h | 314m | 8m/s | -41.6°C | 0% | 8.2hPa | 2.4V | 00:00:00 | 00:00:00 | 00:00:00 | |
| AA1-15 | 2026-08-31 12:50:35 | 54.88600 | 20.04617 | 50° | 100km/h | 307m | 8.2m/s | -41.6°C | 0% | 8.2hPa | 2.4V | 00:00:00 | 00:00:00 | 00:00:00 | |
| AA1-15 | 2026-08-31 12:50:34 | 54.88561 | 20.04551 | 46° | 99km/h | 287m | 8.1m/s | -41.7°C | 0% | 8.3hPa | 2.4V | 00:00:00 | 00:00:00 | 00:00:00 | |
| AA1-15 | 2026-08-31 12:50:31 | 54.88516 | 20.04490 | 42° | 99km/h | 264m | 8m/s | -41.8°C | 0% | 8.3hPa | 2.4V | 00:00:00 | 00:00:00 | 00:00:00 | |
| AA1-15 | 2026-08-31 12:50:30 | 54.88473 | 20.04433 | 40° | 95km/h | 241m | 8.3m/s | -41.9°C | 0% | 8.3hPa | 2.4V | 00:00:00 | 00:00:00 | 00:00:00 | |
| AA1-15 | 2026-08-31 12:50:29 | 54.88457 | 20.04406 | 38° | 95km/h | 235m | 8.1m/s | -41.9°C | 0% | 8.3hPa | 2.4V | 00:00:00 | 00:00:00 | 00:00:00 | |
| AA1-15 | 2026-08-31 12:50:28 | 54.88440 | 20.04381 | 39° | 95km/h | 230m | 8.1m/s | -41.9°C | 0% | 8.3hPa | 2.4V | 00:00:00 | 00:00:00 | 00:00:00 | |
| AA1-15 | 2026-08-31 12:50:26 | 54.88403 | 20.04331 | 35° | 95km/h | 219m | 7.7m/s | -41.8°C | 0% | 8.3hPa | 2.4V | 00:00:00 | 00:00:00 | 00:00:00 | |
| AA1-15 | 2026-08-31 12:50:24 | 54.88384 | 20.04308 | 32° | 100km/h | 214m | 7.9m/s | -41.9°C | 0% | 8.4hPa | 2.4V | 00:00:00 | 00:00:00 | 00:00:00 | |
| AA1-15 | 2026-08-31 12:50:21 | 54.88323 | 20.04241 | 29° | 93km/h | 191m | 8m/s | -41.8°C | 0% | 8.4hPa | 2.4V | 00:00:00 | 00:00:00 | 00:00:00 | |
| AA1-15 | 2026-08-31 12:50:19 | 54.88244 | 20.04161 | 22° | 99km/h | 153m | 8.1m/s | -41.9°C | 0% | 8.4hPa | 2.4V | 00:00:00 | 00:00:00 | 00:00:00 | |
| AA1-15 | 2026-08-31 12:50:17 | 54.88222 | 20.04145 | 20° | 99km/h | 143m | 8m/s | -42°C | 0% | 8.4hPa | 2.4V | 00:00:00 | 00:00:00 | 00:00:00 | |
| AA1-15 | 2026-08-31 12:50:16 | 54.88200 | 20.04132 | 17° | 95km/h | 131m | 8m/s | -41.9°C | 0% | 8.5hPa | 2.4V | 00:00:00 | 00:00:00 | 00:00:00 | |
| AA1-15 | 2026-08-31 12:50:11 | 54.95067 | 19.26061 | 0° | 0km/h | 159087m | 0m/s | -42°C | 0% | 8.5hPa | 2.4V | 00:00:00 | 00:00:00 | 00:00:00 | |
| AA1-15 | 2026-08-31 12:50:00 | 54.95089 | 19.26148 | 246° | 22km/h | 159087m | 7.8m/s | -42°C | 0% | 8.6hPa | 2.4V | 00:00:00 | 00:00:00 | 00:00:00 | |
| AA1-15 | 2026-08-31 12:49:28 | 54.95125 | 19.26337 | 270° | 13km/h | 2203m | 8.2m/s | -42.1°C | 0% | 9hPa | 2.4V | 00:00:00 | 00:00:00 | 00:00:00 | |
| AA1-15 | 2026-08-31 12:49:18 | 54.95115 | 19.26401 | 270° | 13km/h | 2088m | 8.1m/s | -42.4°C | 0% | 9.1hPa | 2.4V | 00:00:00 | 00:00:00 | 00:00:00 | |
| AA1-15 | 2026-08-31 12:49:09 | 54.95117 | 19.26468 | 270° | 15km/h | 1998m | 8m/s | -42.1°C | 0% | 9.2hPa | 2.4V | 00:00:00 | 00:00:00 | 00:00:00 | |
| AA1-15 | 2026-08-31 12:49:06 | 54.95120 | 19.26485 | 270° | 15km/h | 1985m | 8m/s | -42.2°C | 0% | 9.2hPa | 2.4V | 00:00:00 | 00:00:00 | 00:00:00 | |
| AA1-15 | 2026-08-31 12:48:59 | 54.95131 | 19.26537 | 272° | 15km/h | 1930m | 7.7m/s | -42°C | 0% | 9.2hPa | 2.4V | 00:00:00 | 00:00:00 | 00:00:00 | |
| AA1-15 | 2026-08-31 12:48:55 | 54.95133 | 19.26560 | 269° | 13km/h | 1910m | 8.1m/s | -42.2°C | 0% | 9.4hPa | 2.4V | 00:00:00 | 00:00:00 | 00:00:00 | |
| AA1-15 | 2026-08-31 12:48:54 | 54.95136 | 19.26576 | 265° | 13km/h | 1893m | 8.2m/s | -42.1°C | 0% | 9.4hPa | 2.4V | 00:00:00 | 00:00:00 | 00:00:00 | |
| AA1-15 | 2026-08-31 12:48:48 | 54.95147 | 19.26577 | 271° | 13km/h | 1902m | 8.1m/s | -42.1°C | 0% | 9.4hPa | 2.4V | 00:00:00 | 00:00:00 | 00:00:00 | |
| AA1-15 | 2026-08-31 12:48:41 | 54.95119 | 19.26652 | 271° | 16km/h | 1842m | 8.3m/s | -42.5°C | 0% | 9.6hPa | 2.4V | 00:00:00 | 00:00:00 | 00:00:00 | |
| AA1-15 | 2026-08-31 12:48:38 | 54.95115 | 19.26659 | 277° | 13km/h | 1828m | 8.4m/s | -42.6°C | 0% | 9.6hPa | 2.4V | 00:00:00 | 00:00:00 | 00:00:00 | |
| AA1-15 | 2026-08-31 12:48:32 | 54.95108 | 19.26682 | 270° | 13km/h | 1788m | 8.2m/s | -42.6°C | 0% | 9.6hPa | 2.4V | 00:00:00 | 00:00:00 | 00:00:00 | |
| AA1-15 | 2026-08-31 12:48:27 | 54.95108 | 19.26704 | 271° | 13km/h | 1747m | 8.3m/s | -42.8°C | 0% | 9.6hPa | 2.4V | 00:00:00 | 00:00:00 | 00:00:00 | |
| AA1-15 | 2026-08-31 12:48:21 | 54.95109 | 19.26737 | 270° | 13km/h | 1693m | 8m/s | -42.7°C | 0% | 9.7hPa | 2.4V | 00:00:00 | 00:00:00 | 00:00:00 | |
| AA1-15 | 2026-08-31 12:48:12 | 54.95108 | 19.26788 | 270° | 15km/h | 1630m | 8m/s | -42.6°C | 0% | 9.8hPa | 2.4V | 00:00:00 | 00:00:00 | 00:00:00 | |
| AA1-15 | 2026-08-31 12:48:11 | 54.95108 | 19.26794 | 270° | 16km/h | 1622m | 8.2m/s | -42.6°C | 0% | 9.9hPa | 2.4V | 00:00:00 | 00:00:00 | 00:00:00 | |
| AA1-15 | 2026-08-31 12:48:10 | 54.95107 | 19.26801 | 270° | 13km/h | 1614m | 8.2m/s | -42.5°C | 0% | 9.9hPa | 2.4V | 00:00:00 | 00:00:00 | 00:00:00 | |
| AA1-15 | 2026-08-31 12:48:09 | 54.95111 | 19.26830 | 267° | 13km/h | 1584m | 8m/s | -42.5°C | 0% | 9.9hPa | 2.4V | 00:00:00 | 00:00:00 | 00:00:00 | |
| AA1-15 | 2026-08-31 12:48:03 | 54.95121 | 19.26862 | 270° | 13km/h | 1563m | 8.2m/s | -42.4°C | 0% | 9.9hPa | 2.4V | 00:00:00 | 00:00:00 | 00:00:00 | |
| AA1-15 | 2026-08-31 12:47:57 | 54.95130 | 19.26942 | 271° | 13km/h | 1513m | 8m/s | -42.4°C | 0% | 10.1hPa | 2.4V | 00:00:00 | 00:00:00 | 00:00:00 | |
| AA1-15 | 2026-08-31 12:47:54 | 54.95130 | 19.26956 | 271° | 13km/h | 1485m | 8.3m/s | -42.5°C | 0% | 10hPa | 2.4V | 00:00:00 | 00:00:00 | 00:00:00 | |
| AA1-15 | 2026-08-31 12:47:52 | 54.95133 | 19.26960 | 289° | 31km/h | 1463m | 8.5m/s | -42.5°C | 0% | 10hPa | 2.4V | 00:00:00 | 00:00:00 | 00:00:00 | |
| AA1-15 | 2026-08-31 12:47:49 | 54.95136 | 19.27068 | 252° | 95km/h | 1436m | 8.1m/s | -42.6°C | 0% | 10.1hPa | 2.4V | 00:00:00 | 00:00:00 | 00:00:00 | |
| AA1-15 | 2026-08-31 12:47:48 | 54.95142 | 19.27106 | 248° | 95km/h | 1425m | 8.1m/s | -42.6°C | 0% | 10.1hPa | 2.4V | 00:00:00 | 00:00:00 | 00:00:00 | |
| AA1-15 | 2026-08-31 12:47:47 | 54.95179 | 19.27205 | 242° | 84km/h | 1383m | 13m/s | -42.8°C | 0% | 10.2hPa | 2.4V | 00:00:00 | 00:00:00 | 00:00:00 | |
| AA1-15 | 2026-08-31 12:47:43 | 54.95236 | 19.27286 | 211° | 97km/h | 1348m | 8.1m/s | -42.8°C | 0% | 10.2hPa | 2.4V | 00:00:00 | 00:00:00 | 00:00:00 | |
| AA1-15 | 2026-08-31 12:47:41 | 54.95255 | 19.27306 | 209° | 93km/h | 1343m | 8.1m/s | -42.8°C | 0% | 10.2hPa | 2.4V | 00:00:00 | 00:00:00 | 00:00:00 | |
| AA1-15 | 2026-08-31 12:47:38 | 54.95324 | 19.27343 | 189° | 95km/h | 1317m | 8.1m/s | -42.6°C | 0% | 10.3hPa | 2.4V | 00:00:00 | 00:00:00 | 00:00:00 | |
| AA1-15 | 2026-08-31 12:47:36 | 54.95374 | 19.27348 | 174° | 95km/h | 1298m | 8.2m/s | -42.7°C | 0% | 10.3hPa | 2.4V | 00:00:00 | 00:00:00 | 00:00:00 | |
| AA1-15 | 2026-08-31 12:47:29 | 54.95528 | 19.27216 | 131° | 93km/h | 1250m | 8.1m/s | -42.7°C | 0% | 10.4hPa | 2.4V | 00:00:00 | 00:00:00 | 00:00:00 | |
| AA1-15 | 2026-08-31 12:47:27 | 54.95553 | 19.27144 | 120° | 93km/h | 1240m | 8.2m/s | -42.8°C | 0% | 10.3hPa | 2.4V | 00:00:00 | 00:00:00 | 00:00:00 | |
| AA1-15 | 2026-08-31 12:47:25 | 54.95575 | 19.27015 | 105° | 100km/h | 1227m | 8.2m/s | -42.8°C | 0% | 10.4hPa | 2.4V | 00:00:00 | 00:00:00 | 00:00:00 | |
| AA1-15 | 2026-08-31 12:47:23 | 54.95579 | 19.26970 | 98° | 97km/h | 1222m | 8m/s | -42.8°C | 0% | 10.4hPa | 2.4V | 00:00:00 | 00:00:00 | 00:00:00 | |
| AA1-15 | 2026-08-31 12:47:21 | 54.95578 | 19.26844 | 78° | 99km/h | 1204m | 8.1m/s | -42.9°C | 0% | 10.4hPa | 2.4V | 00:00:00 | 00:00:00 | 00:00:00 | |
| AA1-15 | 2026-08-31 12:47:18 | 54.95564 | 19.26764 | 69° | 91km/h | 1188m | 8.2m/s | -42.8°C | 0% | 10.4hPa | 2.4V | 00:00:00 | 00:00:00 | 00:00:00 | |
| AA1-15 | 2026-08-31 12:47:09 | 54.95396 | 19.26541 | 13° | 97km/h | 1120m | 7.9m/s | -42.8°C | 0% | 10.6hPa | 2.4V | 00:00:00 | 00:00:00 | 00:00:00 | |
| AA1-15 | 2026-08-31 12:47:07 | 54.95329 | 19.26509 | 0° | 93km/h | 1095m | 8.1m/s | -42.8°C | 0% | 10.6hPa | 2.4V | 00:00:00 | 00:00:00 | 00:00:00 | |
| AA1-15 | 2026-08-31 12:46:55 | 54.94953 | 19.26557 | 0° | 100km/h | 942m | 8.2m/s | -43°C | 0% | 10.8hPa | 2.4V | 00:00:00 | 00:00:00 | 00:00:00 | |
| AA1-15 | 2026-08-31 12:46:47 | 54.94887 | 19.26546 | 27° | 99km/h | 902m | 8.3m/s | -43.1°C | 0% | 10.9hPa | 2.4V | 00:00:00 | 00:00:00 | 00:00:00 | |
| AA1-15 | 2026-08-31 12:46:45 | 54.94851 | 19.26491 | 60° | 97km/h | 885m | 8.2m/s | -43.2°C | 0% | 10.9hPa | 2.4V | 00:00:00 | 00:00:00 | 00:00:00 | |
| AA1-15 | 2026-08-31 12:46:42 | 54.94884 | 19.26311 | 153° | 99km/h | 848m | 8.1m/s | -43.4°C | 0% | 11hPa | 2.4V | 00:00:00 | 00:00:00 | 00:00:00 | |
| AA1-15 | 2026-08-31 12:46:26 | 54.95016 | 19.26740 | 270° | 95km/h | 753m | 8m/s | -43.4°C | 0% | 11.1hPa | 2.4V | 00:00:00 | 00:00:00 | 00:00:00 | |
| AA1-15 | 2026-08-31 12:46:21 | 54.95067 | 19.26885 | 270° | 95km/h | 731m | 8.2m/s | -43.4°C | 0% | 11.2hPa | 2.4V | 00:00:00 | 00:00:00 | 00:00:00 | |
| AA1-15 | 2026-08-31 12:46:20 | 54.95205 | 19.26576 | 267° | 93km/h | 615m | 7.2m/s | -43.4°C | 0% | 11.3hPa | 2.4V | 00:00:00 | 00:00:00 | 00:00:00 | |
| AA1-15 | 2026-08-31 12:46:17 | 54.95522 | 19.26099 | 242° | 95km/h | 584m | 7.5m/s | -43.6°C | 0% | 11.3hPa | 2.4V | 00:00:00 | 00:00:00 | 00:00:00 | |
| AA1-15 | 2026-08-31 12:46:15 | 54.95589 | 19.25967 | 234° | 93km/h | 477m | 8m/s | -43.6°C | 0% | 11.3hPa | 2.4V | 00:00:00 | 00:00:00 | 00:00:00 | |
| AA1-15 | 2026-08-31 12:46:13 | 54.95650 | 19.25955 | 215° | 95km/h | 389m | 7.7m/s | -43.7°C | 0% | 11.3hPa | 2.4V | 00:00:00 | 00:00:00 | 00:00:00 | |
| AA1-15 | 2026-08-31 12:46:12 | 54.95724 | 19.25973 | 205° | 95km/h | 289m | 6.6m/s | -43.7°C | 0% | 11.3hPa | 2.4V | 00:00:00 | 00:00:00 | 00:00:00 | |
| AA1-15 | 2026-08-31 12:46:10 | 54.95768 | 19.26021 | 189° | 95km/h | 294m | -0.3m/s | -43.7°C | 0% | 11.3hPa | 2.4V | 00:00:00 | 00:00:00 | 00:00:00 | |
| AA1-15 | 2026-08-31 12:44:50 | 55.08248 | 19.73316 | 269° | 16km/h | 2153m | 7.9m/s | -44.6°C | 0% | 12.4hPa | 2.4V | 00:00:00 | 00:00:00 | 00:00:00 | |
| AA1-15 | 2026-08-31 12:44:39 | 55.08237 | 19.73381 | 271° | 13km/h | 2064m | 8.1m/s | -45°C | 0% | 12.6hPa | 2.4V | 00:00:00 | 00:00:00 | 00:00:00 | |
| AA1-15 | 2026-08-31 12:44:27 | 55.08229 | 19.73451 | 271° | 13km/h | 1994m | 8.1m/s | -45°C | 0% | 12.8hPa | 2.4V | 00:00:00 | 00:00:00 | 00:00:00 | |
| AA1-15 | 2026-08-31 12:44:22 | 55.08240 | 19.73480 | 276° | 13km/h | 1949m | 7.9m/s | -45.3°C | 0% | 12.8hPa | 2.4V | 00:00:00 | 00:00:00 | 00:00:00 | |
| AA1-15 | 2026-08-31 12:44:18 | 55.08242 | 19.73509 | 252° | 13km/h | 1927m | 9.1m/s | -45.4°C | 0% | 12.8hPa | 2.4V | 00:00:00 | 00:00:00 | 00:00:00 | |
| AA1-15 | 2026-08-31 12:44:13 | 55.08225 | 19.73539 | 269° | 13km/h | 1887m | 8m/s | -45.6°C | 0% | 13hPa | 2.4V | 00:00:00 | 00:00:00 | 00:00:00 | |
| AA1-15 | 2026-08-31 12:44:11 | 55.08226 | 19.73558 | 270° | 16km/h | 1860m | 8m/s | -45.7°C | 0% | 13hPa | 2.4V | 00:00:00 | 00:00:00 | 00:00:00 | |
| AA1-15 | 2026-08-31 12:44:09 | 55.08224 | 19.73571 | 271° | 13km/h | 1840m | 8.1m/s | -45.7°C | 0% | 13.1hPa | 2.4V | 00:00:00 | 00:00:00 | 00:00:00 | |
| AA1-15 | 2026-08-31 12:44:06 | 55.08217 | 19.73589 | 271° | 16km/h | 1811m | 8m/s | -45.7°C | 0% | 13.1hPa | 2.4V | 00:00:00 | 00:00:00 | 00:00:00 | |
| AA1-15 | 2026-08-31 12:44:03 | 55.08214 | 19.73602 | 272° | 13km/h | 1796m | 8.2m/s | -45.7°C | 0% | 13.1hPa | 2.4V | 00:00:00 | 00:00:00 | 00:00:00 | |
| AA1-15 | 2026-08-31 12:44:01 | 55.08225 | 19.73630 | 271° | 13km/h | 1774m | 8m/s | -45.7°C | 0% | 13.2hPa | 2.4V | 00:00:00 | 00:00:00 | 00:00:00 | |
| AA1-15 | 2026-08-31 12:43:59 | 55.08227 | 19.73636 | 271° | 13km/h | 1765m | 8.1m/s | -45.8°C | 0% | 13.2hPa | 2.4V | 00:00:00 | 00:00:00 | 00:00:00 | |
| AA1-15 | 2026-08-31 12:43:58 | 55.08229 | 19.73642 | 270° | 15km/h | 1754m | 8m/s | -45.8°C | 0% | 13.2hPa | 2.4V | 00:00:00 | 00:00:00 | 00:00:00 | |
| AA1-15 | 2026-08-31 12:43:42 | 55.08380 | 19.74036 | 208° | 91km/h | 1581m | 8m/s | -46.6°C | 0% | 13.5hPa | 2.4V | 00:00:00 | 00:00:00 | 00:00:00 | |
| AA1-15 | 2026-08-31 12:43:39 | 55.08454 | 19.74075 | 189° | 97km/h | 1554m | 8m/s | -46.5°C | 0% | 13.5hPa | 2.4V | 00:00:00 | 00:00:00 | 00:00:00 | |
| AA1-15 | 2026-08-31 12:43:37 | 55.08481 | 19.74081 | 181° | 100km/h | 1545m | 8m/s | -46.6°C | 0% | 13.5hPa | 2.4V | 00:00:00 | 00:00:00 | 00:00:00 | |
| AA1-15 | 2026-08-31 12:43:34 | 55.08555 | 19.74068 | 164° | 100km/h | 1526m | 8m/s | -46.6°C | 0% | 13.6hPa | 2.4V | 00:00:00 | 00:00:00 | 00:00:00 | |
| AA1-15 | 2026-08-31 12:43:30 | 55.08659 | 19.73960 | 132° | 93km/h | 1490m | 8.1m/s | -46.5°C | 0% | 13.6hPa | 2.4V | 00:00:00 | 00:00:00 | 00:00:00 | |
| AA1-15 | 2026-08-31 12:43:29 | 55.08687 | 19.73890 | 118° | 97km/h | 1477m | 8m/s | -46.5°C | 0% | 13.7hPa | 2.4V | 00:00:00 | 00:00:00 | 00:00:00 | |
| AA1-15 | 2026-08-31 12:43:27 | 55.08699 | 19.73855 | 115° | 93km/h | 1471m | 8m/s | -46.5°C | 0% | 13.6hPa | 2.4V | 00:00:00 | 00:00:00 | 00:00:00 | |
| AA1-15 | 2026-08-31 12:43:26 | 55.08710 | 19.73816 | 109° | 95km/h | 1464m | 8m/s | -46.5°C | 0% | 13.7hPa | 2.4V | 00:00:00 | 00:00:00 | 00:00:00 | |
| AA1-15 | 2026-08-31 12:43:24 | 55.08719 | 19.73776 | 105° | 99km/h | 1457m | 8.1m/s | -46.6°C | 0% | 13.7hPa | 2.4V | 00:00:00 | 00:00:00 | 00:00:00 | |
| AA1-15 | 2026-08-31 12:43:20 | 55.08716 | 19.73608 | 78° | 97km/h | 1446m | 8.1m/s | -46.6°C | 0% | 13.8hPa | 2.4V | 00:00:00 | 00:00:00 | 00:00:00 | |
| AA1-15 | 2026-08-31 12:43:19 | 55.08675 | 19.73457 | 56° | 97km/h | 1409m | 8.1m/s | -46.6°C | 0% | 13.8hPa | 2.4V | 00:00:00 | 00:00:00 | 00:00:00 | |
| AA1-15 | 2026-08-31 12:43:16 | 55.08659 | 19.73424 | 49° | 97km/h | 1401m | 8.1m/s | -46.6°C | 0% | 13.8hPa | 2.4V | 00:00:00 | 00:00:00 | 00:00:00 | |
| AA1-15 | 2026-08-31 12:43:15 | 55.08641 | 19.73396 | 42° | 95km/h | 1393m | 8.1m/s | -46.6°C | 0% | 13.9hPa | 2.4V | 00:00:00 | 00:00:00 | 00:00:00 | |
| AA1-15 | 2026-08-31 12:43:09 | 55.08528 | 19.73302 | 11° | 97km/h | 1351m | 8.2m/s | -46.6°C | 0% | 13.9hPa | 2.4V | 00:00:00 | 00:00:00 | 00:00:00 | |
| AA1-15 | 2026-08-31 12:43:07 | 55.08434 | 19.73300 | 0° | 100km/h | 1321m | 8m/s | -46.6°C | 0% | 14hPa | 2.4V | 00:00:00 | 00:00:00 | 00:00:00 | |
| AA1-15 | 2026-08-31 12:43:02 | 55.08338 | 19.73308 | 0° | 100km/h | 1287m | 8m/s | -46.5°C | 0% | 14.1hPa | 2.4V | 00:00:00 | 00:00:00 | 00:00:00 | |
| AA1-15 | 2026-08-31 12:42:57 | 55.08194 | 19.73313 | 0° | 95km/h | 1220m | 8.1m/s | -46.6°C | 0% | 14.1hPa | 2.4V | 00:00:00 | 00:00:00 | 00:00:00 | |
| AA1-15 | 2026-08-31 12:42:54 | 55.08145 | 19.73311 | 0° | 95km/h | 1196m | 8.1m/s | -46.6°C | 0% | 14.2hPa | 2.4V | 00:00:00 | 00:00:00 | 00:00:00 | |
| AA1-15 | 2026-08-31 12:42:51 | 55.08095 | 19.73308 | 0° | 95km/h | 1171m | 8.1m/s | -46.6°C | 0% | 14.2hPa | 2.4V | 00:00:00 | 00:00:00 | 00:00:00 | |
| AA1-15 | 2026-08-31 12:42:35 | 55.08103 | 19.73173 | 268° | 91km/h | 987m | 9.4m/s | -47.1°C | 0% | 14.5hPa | 2.4V | 00:00:00 | 00:00:00 | 00:00:00 | |
| AA1-15 | 2026-08-31 12:42:27 | 55.08097 | 19.73425 | 270° | 99km/h | 931m | 8.1m/s | -47.3°C | 0% | 14.6hPa | 2.4V | 00:00:00 | 00:00:00 | 00:00:00 | |
| AA1-15 | 2026-08-31 12:42:26 | 55.08094 | 19.73507 | 270° | 95km/h | 912m | 8.1m/s | -47.3°C | 0% | 14.6hPa | 2.4V | 00:00:00 | 00:00:00 | 00:00:00 | |
| AA1-15 | 2026-08-31 12:42:24 | 55.08094 | 19.73627 | 270° | 99km/h | 873m | 8m/s | -47.3°C | 0% | 14.7hPa | 2.4V | 00:00:00 | 00:00:00 | 00:00:00 | |
| AA1-15 | 2026-08-31 12:42:22 | 55.08093 | 19.73668 | 270° | 95km/h | 862m | 8m/s | -47.3°C | 0% | 14.7hPa | 2.4V | 00:00:00 | 00:00:00 | 00:00:00 | |
| AA1-15 | 2026-08-31 12:42:20 | 55.08093 | 19.73708 | 270° | 95km/h | 848m | 8.2m/s | -47.3°C | 0% | 14.7hPa | 2.4V | 00:00:00 | 00:00:00 | 00:00:00 | |
| AA1-15 | 2026-08-31 12:42:17 | 55.08107 | 19.73868 | 247° | 97km/h | 788m | 7.8m/s | -47.4°C | 0% | 14.8hPa | 2.4V | 00:00:00 | 00:00:00 | 00:00:00 | |
| AA1-15 | 2026-08-31 12:42:13 | 55.08225 | 19.73929 | 206° | 95km/h | 239m | 7.8m/s | -47.4°C | 0% | 14.8hPa | 2.4V | 00:00:00 | 00:00:00 | 00:00:00 | |
| AA1-15 | 2026-08-31 12:42:12 | 55.07643 | 19.73568 | 196° | 95km/h | 480m | 7.7m/s | -47.4°C | 0% | 14.8hPa | 2.4V | 00:00:00 | 00:00:00 | 00:00:00 | |
| AA1-15 | 2026-08-31 12:42:03 | 54.92103 | 19.89521 | 271° | 16km/h | 159087m | 8.1m/s | -47.4°C | 0% | 15hPa | 2.4V | 00:00:00 | 00:00:00 | 00:00:00 | |
| AA1-15 | 2026-08-31 12:41:52 | 54.92120 | 19.89615 | 271° | 13km/h | 2611m | 8.1m/s | -47.6°C | 0% | 15.2hPa | 2.4V | 00:00:00 | 00:00:00 | 00:00:00 | |
| AA1-15 | 2026-08-31 12:41:41 | 54.92121 | 19.89698 | 272° | 13km/h | 2512m | 8.1m/s | -47.7°C | 0% | 15.4hPa | 2.4V | 00:00:00 | 00:00:00 | 00:00:00 | |
| AA1-15 | 2026-08-31 12:41:31 | 54.92126 | 19.89766 | 271° | 16km/h | 2423m | 8m/s | -47.7°C | 0% | 15.6hPa | 2.4V | 00:00:00 | 00:00:00 | 00:00:00 | |
| AA1-15 | 2026-08-31 12:41:20 | 54.92112 | 19.89814 | 270° | 16km/h | 2343m | 8m/s | -47.6°C | 0% | 15.7hPa | 2.4V | 00:00:00 | 00:00:00 | 00:00:00 | |
| AA1-15 | 2026-08-31 12:41:10 | 54.92108 | 19.89864 | 270° | 13km/h | 2268m | 8m/s | -47.6°C | 0% | 15.9hPa | 2.4V | 00:00:00 | 00:00:00 | 00:00:00 | |
| AA1-15 | 2026-08-31 12:41:00 | 54.92102 | 19.89932 | 270° | 16km/h | 2184m | 8m/s | -47.8°C | 0% | 16.1hPa | 2.4V | 00:00:00 | 00:00:00 | 00:00:00 | |
| AA1-15 | 2026-08-31 12:40:49 | 54.92104 | 19.89997 | 269° | 13km/h | 2085m | 8m/s | -48.1°C | 0% | 16.3hPa | 2.4V | 00:00:00 | 00:00:00 | 00:00:00 | |
| AA1-15 | 2026-08-31 12:40:38 | 54.92115 | 19.90063 | 303° | 15km/h | 1990m | 7.4m/s | -48.4°C | 0% | 16.5hPa | 2.4V | 00:00:00 | 00:00:00 | 00:00:00 | |
| AA1-15 | 2026-08-31 12:40:31 | 54.92082 | 19.90108 | 271° | 15km/h | 1949m | 8m/s | -48.4°C | 0% | 16.6hPa | 2.4V | 00:00:00 | 00:00:00 | 00:00:00 | |
| AA1-15 | 2026-08-31 12:40:28 | 54.92076 | 19.90124 | 270° | 13km/h | 1919m | 8m/s | -48.5°C | 0% | 16.6hPa | 2.4V | 00:00:00 | 00:00:00 | 00:00:00 | |
| AA1-15 | 2026-08-31 12:40:22 | 54.92075 | 19.90164 | 268° | 16km/h | 1870m | 7.9m/s | -48.3°C | 0% | 16.8hPa | 2.4V | 00:00:00 | 00:00:00 | 00:00:00 | |
| AA1-15 | 2026-08-31 12:40:16 | 54.92100 | 19.90224 | 272° | 16km/h | 1821m | 8.2m/s | -48.1°C | 0% | 16.9hPa | 2.4V | 00:00:00 | 00:00:00 | 00:00:00 | |
| AA1-15 | 2026-08-31 12:40:08 | 54.92120 | 19.90269 | 267° | 13km/h | 1744m | 8.4m/s | -48°C | 0% | 17hPa | 2.4V | 00:00:00 | 00:00:00 | 00:00:00 | |
| AA1-15 | 2026-08-31 12:40:03 | 54.92123 | 19.90305 | 269° | 13km/h | 1697m | 7.9m/s | -47.9°C | 0% | 17.1hPa | 2.4V | 00:00:00 | 00:00:00 | 00:00:00 | |
| AA1-15 | 2026-08-31 12:39:59 | 54.92127 | 19.90328 | 268° | 16km/h | 1677m | 8m/s | -47.8°C | 0% | 17.3hPa | 2.4V | 00:00:00 | 00:00:00 | 00:00:00 | |
| AA1-15 | 2026-08-31 12:39:56 | 54.92132 | 19.90361 | 271° | 13km/h | 1659m | 8m/s | -47.9°C | 0% | 17.3hPa | 2.4V | 00:00:00 | 00:00:00 | 00:00:00 | |
| AA1-15 | 2026-08-31 12:39:50 | 54.92146 | 19.90532 | 248° | 95km/h | 1608m | 8m/s | -47.7°C | 0% | 17.4hPa | 2.4V | 00:00:00 | 00:00:00 | 00:00:00 | |
| AA1-15 | 2026-08-31 12:39:48 | 54.92156 | 19.90568 | 240° | 97km/h | 1599m | 8.1m/s | -47.6°C | 0% | 17.4hPa | 2.4V | 00:00:00 | 00:00:00 | 00:00:00 | |
| AA1-15 | 2026-08-31 12:39:43 | 54.92235 | 19.90721 | 211° | 99km/h | 1555m | 8m/s | -47.6°C | 0% | 17.5hPa | 2.4V | 00:00:00 | 00:00:00 | 00:00:00 | |
| AA1-15 | 2026-08-31 12:39:41 | 54.92277 | 19.90757 | 199° | 97km/h | 1539m | 8m/s | -47.6°C | 0% | 17.5hPa | 2.4V | 00:00:00 | 00:00:00 | 00:00:00 | |
| AA1-15 | 2026-08-31 12:39:33 | 54.92484 | 19.90712 | 146° | 97km/h | 1472m | 8.1m/s | -47.7°C | 0% | 17.8hPa | 2.3V | 00:00:00 | 00:00:00 | 00:00:00 | |
| AA1-15 | 2026-08-31 12:39:29 | 54.92544 | 19.90631 | 127° | 91km/h | 1451m | 8.1m/s | -47.8°C | 0% | 17.8hPa | 2.3V | 00:00:00 | 00:00:00 | 00:00:00 | |
| AA1-15 | 2026-08-31 12:39:27 | 54.92573 | 19.90556 | 114° | 99km/h | 1435m | 8.1m/s | -47.8°C | 0% | 17.8hPa | 2.3V | 00:00:00 | 00:00:00 | 00:00:00 | |
| AA1-15 | 2026-08-31 12:39:21 | 54.92587 | 19.90306 | 78° | 99km/h | 1388m | 8.1m/s | -47.9°C | 0% | 18hPa | 2.3V | 00:00:00 | 00:00:00 | 00:00:00 | |
| AA1-15 | 2026-08-31 12:39:19 | 54.92567 | 19.90225 | 68° | 95km/h | 1374m | 7.9m/s | -47.9°C | 0% | 18hPa | 2.2V | 00:00:00 | 00:00:00 | 00:00:00 | |
| AA1-15 | 2026-08-31 12:39:16 | 54.92531 | 19.90113 | 49° | 93km/h | 1351m | 7.9m/s | -47.9°C | 0% | 18hPa | 2.2V | 00:00:00 | 00:00:00 | 00:00:00 | |
| AA1-15 | 2026-08-31 12:39:14 | 54.92496 | 19.90055 | 36° | 91km/h | 1334m | 8.2m/s | -48°C | 0% | 18.1hPa | 2.2V | 00:00:00 | 00:00:00 | 00:00:00 | |
| AA1-15 | 2026-08-31 12:39:07 | 54.92329 | 19.89964 | 0° | 95km/h | 1276m | 8.1m/s | -48.1°C | 0% | 18.2hPa | 2.2V | 00:00:00 | 00:00:00 | 00:00:00 | |
| AA1-15 | 2026-08-31 12:39:05 | 54.92279 | 19.89966 | 0° | 95km/h | 1257m | 8.1m/s | -48.1°C | 0% | 18.2hPa | 2.2V | 00:00:00 | 00:00:00 | 00:00:00 | |
| AA1-15 | 2026-08-31 12:39:01 | 54.92148 | 19.89974 | 360° | 95km/h | 1198m | 7.9m/s | -48.2°C | 0% | 18.3hPa | 2.2V | 00:00:00 | 00:00:00 | 00:00:00 | |
| AA1-15 | 2026-08-31 12:38:59 | 54.92122 | 19.89975 | 360° | 93km/h | 1185m | 8.1m/s | -48.2°C | 0% | 18.3hPa | 2.2V | 00:00:00 | 00:00:00 | 00:00:00 | |
| AA1-15 | 2026-08-31 12:38:57 | 54.92073 | 19.89978 | 360° | 93km/h | 1168m | 8m/s | -48.1°C | 0% | 18.4hPa | 2.2V | 00:00:00 | 00:00:00 | 00:00:00 | |
| AA1-15 | 2026-08-31 12:38:54 | 54.91989 | 19.89971 | 360° | 93km/h | 1130m | 8m/s | -48.2°C | 0% | 18.4hPa | 2.2V | 00:00:00 | 00:00:00 | 00:00:00 | |
| AA1-15 | 2026-08-31 12:38:46 | 54.91808 | 19.89904 | 59° | 97km/h | 1053m | 8m/s | -48.4°C | 0% | 18.6hPa | 2.2V | 00:00:00 | 00:00:00 | 00:00:00 | |
| AA1-15 | 2026-08-31 12:38:44 | 54.91801 | 19.89825 | 99° | 97km/h | 1039m | 7.9m/s | -48.4°C | 0% | 18.6hPa | 2.2V | 00:00:00 | 00:00:00 | 00:00:00 | |
| AA1-15 | 2026-08-31 12:38:41 | 54.91845 | 19.89728 | 153° | 97km/h | 1017m | 8.1m/s | -48.5°C | 0% | 18.7hPa | 2.2V | 00:00:00 | 00:00:00 | 00:00:00 | |
| AA1-15 | 2026-08-31 12:38:36 | 54.91959 | 19.89795 | 242° | 97km/h | 992m | 8.2m/s | -48.7°C | 0% | 18.8hPa | 2.2V | 00:00:00 | 00:00:00 | 00:00:00 | |
| AA1-15 | 2026-08-31 12:38:33 | 54.91975 | 19.89925 | 270° | 95km/h | 979m | 8m/s | -48.8°C | 0% | 18.8hPa | 2.2V | 00:00:00 | 00:00:00 | 00:00:00 | |
| AA1-15 | 2026-08-31 12:38:32 | 54.91976 | 19.89969 | 270° | 95km/h | 974m | 8m/s | -48.8°C | 0% | 18.9hPa | 2.2V | 00:00:00 | 00:00:00 | 00:00:00 | |
| AA1-15 | 2026-08-31 12:38:30 | 54.91987 | 19.90143 | 270° | 97km/h | 958m | 8m/s | -48.8°C | 0% | 18.9hPa | 2.2V | 00:00:00 | 00:00:00 | 00:00:00 | |
| AA1-15 | 2026-08-31 12:38:24 | 54.91992 | 19.90312 | 270° | 95km/h | 931m | 8m/s | -48.9°C | 0% | 19hPa | 2.2V | 00:00:00 | 00:00:00 | 00:00:00 | |
| AA1-15 | 2026-08-31 12:38:21 | 54.92003 | 19.90441 | 270° | 95km/h | 916m | 8m/s | -48.8°C | 0% | 19.1hPa | 2.2V | 00:00:00 | 00:00:00 | 00:00:00 | |
| AA1-15 | 2026-08-31 12:38:20 | 54.92008 | 19.90485 | 272° | 93km/h | 912m | 8.6m/s | -48.7°C | 0% | 19.1hPa | 2.2V | 00:00:00 | 00:00:00 | 00:00:00 | |
| AA1-15 | 2026-08-31 12:38:17 | 54.92069 | 19.90682 | 239° | 97km/h | 929m | 8m/s | -48.7°C | 0% | 19.2hPa | 2.2V | 00:00:00 | 00:00:00 | 00:00:00 | |
| AA1-15 | 2026-08-31 12:38:11 | 54.88462 | 20.04150 | 33° | 22km/h | 159087m | 8.2m/s | -48.7°C | 0% | 19.3hPa | 2.2V | 00:00:00 | 00:00:00 | 00:00:00 | |
| AA1-15 | 2026-08-31 12:37:59 | 54.88407 | 20.04088 | 30° | 5km/h | 2872m | 8m/s | -49.2°C | 0% | 19.5hPa | 2.2V | 00:00:00 | 00:00:00 | 00:00:00 | |
| AA1-15 | 2026-08-31 12:37:48 | 54.88352 | 20.04080 | 359° | 16km/h | 2769m | 7.7m/s | -49.9°C | 0% | 19.7hPa | 2.2V | 00:00:00 | 00:00:00 | 00:00:00 | |
| AA1-15 | 2026-08-31 12:37:37 | 54.88311 | 20.04089 | 0° | 16km/h | 2659m | 7.8m/s | -50.2°C | 0% | 20hPa | 2.2V | 00:00:00 | 00:00:00 | 00:00:00 | |
| AA1-15 | 2026-08-31 12:37:25 | 54.88268 | 20.04020 | 0° | 9km/h | 159087m | 8.1m/s | -50.5°C | 0% | 20.1hPa | 2.2V | 00:00:00 | 00:00:00 | 00:00:00 | |
| AA1-15 | 2026-08-31 12:37:14 | 54.88223 | 20.04028 | 360° | 16km/h | 2547m | 8m/s | -50.8°C | 0% | 20.3hPa | 2.1V | 00:00:00 | 00:00:00 | 00:00:00 | |
| AA1-15 | 2026-08-31 12:37:04 | 54.88176 | 20.04044 | 356° | 16km/h | 2495m | 7.7m/s | -50.9°C | 0% | 20.6hPa | 2.1V | 00:00:00 | 00:00:00 | 00:00:00 | |
| AA1-15 | 2026-08-31 12:36:53 | 54.88112 | 20.04042 | 0° | 11km/h | 2432m | 7.9m/s | -51°C | 0% | 20.8hPa | 2.2V | 00:00:00 | 00:00:00 | 00:00:00 | |
| AA1-15 | 2026-08-31 12:36:43 | 54.88076 | 20.04055 | 1° | 16km/h | 2366m | 8.2m/s | -50.9°C | 0% | 21hPa | 2.1V | 00:00:00 | 00:00:00 | 00:00:00 | |
| AA1-15 | 2026-08-31 12:36:32 | 54.88038 | 20.04052 | 0° | 16km/h | 2308m | 8m/s | -50.7°C | 0% | 21.2hPa | 2.1V | 00:00:00 | 00:00:00 | 00:00:00 | |
| AA1-15 | 2026-08-31 12:36:22 | 54.88020 | 20.04099 | 1° | 11km/h | 2274m | 7.8m/s | -50.6°C | 0% | 21.5hPa | 2.2V | 00:00:00 | 00:00:00 | 00:00:00 | |
| AA1-15 | 2026-08-31 12:36:11 | 54.87938 | 20.04045 | 1° | 9km/h | 2254m | 8m/s | -50.6°C | 0% | 21.7hPa | 2.1V | 00:00:00 | 00:00:00 | 00:00:00 | |
| AA1-15 | 2026-08-31 12:35:44 | 54.87691 | 20.04055 | 347° | 93km/h | 1938m | 8.1m/s | -50.7°C | 0% | 22.3hPa | 2.1V | 00:00:00 | 00:00:00 | 00:00:00 | |
| AA1-15 | 2026-08-31 12:35:40 | 54.87621 | 20.04089 | 341° | 97km/h | 1903m | 7.8m/s | -50.8°C | 0% | 22.3hPa | 2.1V | 00:00:00 | 00:00:00 | 00:00:00 | |
| AA1-15 | 2026-08-31 12:35:37 | 54.87518 | 20.04162 | 332° | 77km/h | 1864m | 9.8m/s | -51°C | 0% | 22.4hPa | 2.1V | 00:00:00 | 00:00:00 | 00:00:00 | |
| AA1-15 | 2026-08-31 12:35:33 | 54.87441 | 20.04250 | 328° | 91km/h | 1825m | 8m/s | -51.1°C | 0% | 22.5hPa | 2.1V | 00:00:00 | 00:00:00 | 00:00:00 | |
| AA1-15 | 2026-08-31 12:35:30 | 54.87398 | 20.04295 | 326° | 97km/h | 1805m | 8.2m/s | -51.2°C | 0% | 22.6hPa | 2.1V | 00:00:00 | 00:00:00 | 00:00:00 | |
| AA1-15 | 2026-08-31 12:35:30 | 54.87374 | 20.04318 | 325° | 99km/h | 1794m | 8.1m/s | -51.2°C | 0% | 22.6hPa | 2.1V | 00:00:00 | 00:00:00 | 00:00:00 | |
| AA1-15 | 2026-08-31 12:35:21 | 54.87229 | 20.04548 | 311° | 97km/h | 1717m | 8m/s | -51.1°C | 0% | 22.8hPa | 2.1V | 00:00:00 | 00:00:00 | 00:00:00 | |
| AA1-15 | 2026-08-31 12:35:16 | 54.87145 | 20.04819 | 302° | 100km/h | 1670m | 8m/s | -51.3°C | 0% | 23hPa | 2.1V | 00:00:00 | 00:00:00 | 00:00:00 | |
| AA1-15 | 2026-08-31 12:35:09 | 54.87087 | 20.05007 | 292° | 95km/h | 1633m | 8m/s | -51.3°C | 0% | 23.1hPa | 2.1V | 00:00:00 | 00:00:00 | 00:00:00 | |
| AA1-15 | 2026-08-31 12:35:07 | 54.87068 | 20.05084 | 289° | 97km/h | 1618m | 8m/s | -51.4°C | 0% | 23.1hPa | 2.1V | 00:00:00 | 00:00:00 | 00:00:00 | |
| AA1-15 | 2026-08-31 12:35:02 | 54.87034 | 20.05329 | 280° | 93km/h | 1580m | 8m/s | -51.3°C | 0% | 23.2hPa | 2.1V | 00:00:00 | 00:00:00 | 00:00:00 | |
| AA1-15 | 2026-08-31 12:35:01 | 54.87032 | 20.05370 | 281° | 95km/h | 1575m | 8m/s | -51.2°C | 0% | 23.3hPa | 2.1V | 00:00:00 | 00:00:00 | 00:00:00 | |
| AA1-15 | 2026-08-31 12:34:59 | 54.87029 | 20.05412 | 278° | 97km/h | 1568m | 8.1m/s | -51.3°C | 0% | 23.3hPa | 2.1V | 00:00:00 | 00:00:00 | 00:00:00 | |
| AA1-15 | 2026-08-31 12:34:56 | 54.87026 | 20.05624 | 267° | 99km/h | 1536m | 8m/s | -51.2°C | 0% | 23.4hPa | 2.1V | 00:00:00 | 00:00:00 | 00:00:00 | |
| AA1-15 | 2026-08-31 12:34:52 | 54.87037 | 20.05791 | 262° | 99km/h | 1514m | 8.6m/s | -51.1°C | 0% | 23.5hPa | 2.1V | 00:00:00 | 00:00:00 | 00:00:00 | |
| AA1-15 | 2026-08-31 12:34:42 | 54.87122 | 20.06212 | 248° | 93km/h | 1388m | 8m/s | -51.1°C | 0% | 23.8hPa | 2.2V | 00:00:00 | 00:00:00 | 00:00:00 | |
| AA1-15 | 2026-08-31 12:34:36 | 54.87163 | 20.06354 | 240° | 93km/h | 1348m | 8.1m/s | -51°C | 0% | 23.8hPa | 2.2V | 00:00:00 | 00:00:00 | 00:00:00 | |
| AA1-15 | 2026-08-31 12:34:31 | 54.87244 | 20.06581 | 229° | 97km/h | 1273m | 7.9m/s | -50.9°C | 0% | 24hPa | 2.2V | 00:00:00 | 00:00:00 | 00:00:00 | |
| AA1-15 | 2026-08-31 12:34:26 | 54.87286 | 20.06675 | 224° | 100km/h | 1235m | 8m/s | -50.9°C | 0% | 24.1hPa | 2.2V | 00:00:00 | 00:00:00 | 00:00:00 | |
| AA1-15 | 2026-08-31 12:34:25 | 54.87302 | 20.06705 | 225° | 93km/h | 1224m | 8m/s | -50.8°C | 0% | 24.1hPa | 2.2V | 00:00:00 | 00:00:00 | 00:00:00 | |
| AA1-15 | 2026-08-31 12:34:21 | 54.87398 | 20.06865 | 214° | 93km/h | 1149m | 8m/s | -50.8°C | 0% | 24.3hPa | 2.2V | 00:00:00 | 00:00:00 | 00:00:00 | |
| AA1-15 | 2026-08-31 12:34:16 | 54.87463 | 20.06932 | 209° | 93km/h | 1123m | 7.9m/s | -50.8°C | 0% | 24.4hPa | 2.2V | 00:00:00 | 00:00:00 | 00:00:00 | |
| AA1-15 | 2026-08-31 12:34:16 | 54.87490 | 20.06952 | 206° | 99km/h | 1112m | 8.1m/s | -50.8°C | 0% | 24.4hPa | 2.2V | 00:00:00 | 00:00:00 | 00:00:00 | |
| AA1-15 | 2026-08-31 12:34:05 | 54.87739 | 20.07096 | 193° | 97km/h | 1027m | 7.8m/s | -50.8°C | 0% | 24.6hPa | 2.2V | 00:00:00 | 00:00:00 | 00:00:00 | |
| AA1-15 | 2026-08-31 12:34:03 | 54.87787 | 20.07112 | 188° | 95km/h | 1011m | 7.9m/s | -50.9°C | 0% | 24.7hPa | 2.2V | 00:00:00 | 00:00:00 | 00:00:00 | |
| AA1-15 | 2026-08-31 12:33:57 | 54.87965 | 20.07138 | 177° | 95km/h | 953m | 8.1m/s | -51°C | 0% | 24.8hPa | 2.2V | 00:00:00 | 00:00:00 | 00:00:00 | |
| AA1-15 | 2026-08-31 12:33:54 | 54.88014 | 20.07140 | 175° | 100km/h | 935m | 8m/s | -51°C | 0% | 24.9hPa | 2.2V | 00:00:00 | 00:00:00 | 00:00:00 | |
| AA1-15 | 2026-08-31 12:33:52 | 54.88115 | 20.07119 | 168° | 99km/h | 907m | 7.9m/s | -51.3°C | 0% | 25hPa | 2.2V | 00:00:00 | 00:00:00 | 00:00:00 | |
| AA1-15 | 2026-08-31 12:33:42 | 54.88317 | 20.07001 | 155° | 97km/h | 846m | 8m/s | -51.2°C | 0% | 25.2hPa | 2.2V | 00:00:00 | 00:00:00 | 00:00:00 | |
| AA1-15 | 2026-08-31 12:33:39 | 54.88383 | 20.06943 | 149° | 97km/h | 819m | 7.9m/s | -51.2°C | 0% | 25.3hPa | 2.2V | 00:00:00 | 00:00:00 | 00:00:00 | |
| AA1-15 | 2026-08-31 12:33:38 | 54.88423 | 20.06899 | 145° | 95km/h | 800m | 7.9m/s | -51.2°C | 0% | 25.4hPa | 2.2V | 00:00:00 | 00:00:00 | 00:00:00 | |
| AA1-15 | 2026-08-31 12:33:26 | 54.88589 | 20.06606 | 131° | 97km/h | 712m | 8.1m/s | -51.1°C | 0% | 25.6hPa | 2.2V | 00:00:00 | 00:00:00 | 00:00:00 | |
| AA1-15 | 2026-08-31 12:33:22 | 54.88647 | 20.06473 | 122° | 95km/h | 672m | 8.1m/s | -51.1°C | 0% | 25.7hPa | 2.2V | 00:00:00 | 00:00:00 | 00:00:00 | |
| AA1-15 | 2026-08-31 12:33:21 | 54.88659 | 20.06436 | 122° | 97km/h | 663m | 8m/s | -51.1°C | 0% | 25.7hPa | 2.2V | 00:00:00 | 00:00:00 | 00:00:00 | |
| AA1-15 | 2026-08-31 12:33:20 | 54.88680 | 20.06360 | 119° | 97km/h | 647m | 8m/s | -51.1°C | 0% | 25.7hPa | 2.2V | 00:00:00 | 00:00:00 | 00:00:00 | |
| AA1-15 | 2026-08-31 12:33:20 | 54.88691 | 20.06323 | 117° | 95km/h | 636m | 8.2m/s | -51.2°C | 0% | 25.7hPa | 2.4V | 00:00:00 | 00:00:00 | 00:00:00 | |
| AA1-15 | 2026-08-31 12:33:18 | 54.88700 | 20.06284 | 114° | 91km/h | 628m | 8.2m/s | -51.2°C | 0% | 25.8hPa | 2.4V | 00:00:00 | 00:00:00 | 00:00:00 | |
| AA1-15 | 2026-08-31 12:33:14 | 54.88737 | 20.06126 | 109° | 97km/h | 602m | 8.1m/s | -51.1°C | 0% | 25.9hPa | 2.4V | 00:00:00 | 00:00:00 | 00:00:00 | |
| AA1-15 | 2026-08-31 12:33:10 | 54.88761 | 20.06009 | 103° | 97km/h | 581m | 8m/s | -51°C | 0% | 26hPa | 2.4V | 00:00:00 | 00:00:00 | 00:00:00 | |
| AA1-15 | 2026-08-31 12:33:02 | 54.88799 | 20.05689 | 92° | 95km/h | 526m | 7.9m/s | -50.9°C | 0% | 26.2hPa | 2.4V | 00:00:00 | 00:00:00 | 00:00:00 | |
| AA1-15 | 2026-08-31 12:33:01 | 54.88800 | 20.05647 | 94° | 95km/h | 518m | 8.1m/s | -50.8°C | 0% | 26.2hPa | 2.4V | 00:00:00 | 00:00:00 | 00:00:00 | |
| AA1-15 | 2026-08-31 12:32:54 | 54.88790 | 20.05351 | 81° | 97km/h | 466m | 8.1m/s | -50.9°C | 0% | 26.4hPa | 2.4V | 00:00:00 | 00:00:00 | 00:00:00 | |
| AA1-15 | 2026-08-31 12:32:50 | 54.88754 | 20.05045 | 72° | 97km/h | 389m | 8.1m/s | -51°C | 0% | 26.6hPa | 2.4V | 00:00:00 | 00:00:00 | 00:00:00 | |
| AA1-15 | 2026-08-31 12:32:31 | 54.94960 | 19.26155 | 0° | 0km/h | 159087m | 0m/s | -51.4°C | 0% | 26.9hPa | 2.4V | 00:00:00 | 00:00:00 | 00:00:00 | |
| AA1-15 | 2026-08-31 12:32:20 | 54.94960 | 19.26155 | 0° | 0km/h | 159087m | 0m/s | -51.4°C | 0% | 27.2hPa | 2.4V | 00:00:00 | 00:00:00 | 00:00:00 | |
| AA1-15 | 2026-08-31 12:32:10 | 54.94960 | 19.26155 | 0° | 0km/h | 159087m | 0m/s | -51.5°C | 0% | 27.5hPa | 2.4V | 00:00:00 | 00:00:00 | 00:00:00 | |
| AA1-15 | 2026-08-31 12:32:00 | 54.95087 | 19.26187 | 188° | 51km/h | 159087m | 10.1m/s | -51.5°C | 0% | 27.8hPa | 2.4V | 00:00:00 | 00:00:00 | 00:00:00 | |
| AA1-15 | 2026-08-31 12:31:48 | 54.95116 | 19.26246 | 269° | 15km/h | 2309m | 8.2m/s | -51.4°C | 0% | 28.1hPa | 2.4V | 00:00:00 | 00:00:00 | 00:00:00 | |
| AA1-15 | 2026-08-31 12:31:36 | 54.95110 | 19.26276 | 270° | 13km/h | 2271m | 8m/s | -51.5°C | 0% | 28.4hPa | 2.4V | 00:00:00 | 00:00:00 | 00:00:00 | |
| AA1-15 | 2026-08-31 12:31:26 | 54.95129 | 19.26345 | 270° | 13km/h | 2192m | 8m/s | -51.6°C | 0% | 28.7hPa | 2.4V | 00:00:00 | 00:00:00 | 00:00:00 | |
| AA1-15 | 2026-08-31 12:31:15 | 54.95138 | 19.26424 | 270° | 15km/h | 2102m | 8m/s | -51.6°C | 0% | 29hPa | 2.4V | 00:00:00 | 00:00:00 | 00:00:00 | |
| AA1-15 | 2026-08-31 12:31:04 | 54.95135 | 19.26454 | 266° | 15km/h | 1977m | 8.6m/s | -51.7°C | 0% | 29.3hPa | 2.4V | 00:00:00 | 00:00:00 | 00:00:00 | |
| AA1-15 | 2026-08-31 12:31:03 | 54.95133 | 19.26468 | 269° | 16km/h | 1961m | 8.2m/s | -51.7°C | 0% | 29.3hPa | 2.4V | 00:00:00 | 00:00:00 | 00:00:00 | |
| AA1-15 | 2026-08-31 12:31:01 | 54.95135 | 19.26479 | 270° | 15km/h | 1948m | 8m/s | -51.8°C | 0% | 29.4hPa | 2.4V | 00:00:00 | 00:00:00 | 00:00:00 | |
| AA1-15 | 2026-08-31 12:30:58 | 54.95135 | 19.26493 | 271° | 16km/h | 1928m | 8.2m/s | -51.8°C | 0% | 29.4hPa | 2.4V | 00:00:00 | 00:00:00 | 00:00:00 | |
| AA1-15 | 2026-08-31 12:30:58 | 54.95136 | 19.26497 | 270° | 13km/h | 1921m | 8.1m/s | -51.8°C | 0% | 29.5hPa | 2.4V | 00:00:00 | 00:00:00 | 00:00:00 | |
| AA1-15 | 2026-08-31 12:30:49 | 54.95137 | 19.26542 | 269° | 16km/h | 1857m | 8.2m/s | -51.6°C | 0% | 29.7hPa | 2.4V | 00:00:00 | 00:00:00 | 00:00:00 | |
| AA1-15 | 2026-08-31 12:30:47 | 54.95136 | 19.26554 | 268° | 13km/h | 1841m | 8.3m/s | -51.6°C | 0% | 29.8hPa | 2.4V | 00:00:00 | 00:00:00 | 00:00:00 | |
| AA1-15 | 2026-08-31 12:30:46 | 54.95136 | 19.26560 | 269° | 13km/h | 1834m | 8.3m/s | -51.6°C | 0% | 29.8hPa | 2.4V | 00:00:00 | 00:00:00 | 00:00:00 | |
| AA1-15 | 2026-08-31 12:30:44 | 54.95133 | 19.26574 | 270° | 16km/h | 1818m | 8.1m/s | -51.6°C | 0% | 29.9hPa | 2.4V | 00:00:00 | 00:00:00 | 00:00:00 | |
| AA1-15 | 2026-08-31 12:30:42 | 54.95126 | 19.26592 | 271° | 18km/h | 1799m | 8.1m/s | -51.6°C | 0% | 29.9hPa | 2.4V | 00:00:00 | 00:00:00 | 00:00:00 | |
| AA1-15 | 2026-08-31 12:30:40 | 54.95121 | 19.26608 | 275° | 15km/h | 1785m | 8.7m/s | -51.6°C | 0% | 29.9hPa | 2.4V | 00:00:00 | 00:00:00 | 00:00:00 | |
| AA1-15 | 2026-08-31 12:30:39 | 54.95123 | 19.26614 | 271° | 13km/h | 1779m | 8.1m/s | -51.6°C | 0% | 30hPa | 2.4V | 00:00:00 | 00:00:00 | 00:00:00 | |
| AA1-15 | 2026-08-31 12:30:37 | 54.95123 | 19.26660 | 269° | 15km/h | 1753m | 8.4m/s | -51.7°C | 0% | 30.1hPa | 2.4V | 00:00:00 | 00:00:00 | 00:00:00 | |
| AA1-15 | 2026-08-31 12:30:34 | 54.95127 | 19.26647 | 271° | 13km/h | 1760m | 8.4m/s | -51.7°C | 0% | 30.1hPa | 2.4V | 00:00:00 | 00:00:00 | 00:00:00 | |
| AA1-15 | 2026-08-31 12:30:32 | 54.95129 | 19.26644 | 272° | 15km/h | 1757m | 8.5m/s | -51.8°C | 0% | 30.1hPa | 2.4V | 00:00:00 | 00:00:00 | 00:00:00 | |
| AA1-15 | 2026-08-31 12:30:30 | 54.95135 | 19.26651 | 270° | 16km/h | 1734m | 8m/s | -51.9°C | 0% | 30.2hPa | 2.4V | 00:00:00 | 00:00:00 | 00:00:00 | |
| AA1-15 | 2026-08-31 12:30:29 | 54.95136 | 19.26657 | 269° | 13km/h | 1724m | 8.1m/s | -51.8°C | 0% | 30.2hPa | 2.4V | 00:00:00 | 00:00:00 | 00:00:00 | |
| AA1-15 | 2026-08-31 12:30:27 | 54.95137 | 19.26663 | 270° | 15km/h | 1715m | 8m/s | -51.8°C | 0% | 30.2hPa | 2.4V | 00:00:00 | 00:00:00 | 00:00:00 | |
| AA1-15 | 2026-08-31 12:30:26 | 54.95136 | 19.26674 | 270° | 15km/h | 1699m | 8.2m/s | -51.8°C | 0% | 30.3hPa | 2.4V | 00:00:00 | 00:00:00 | 00:00:00 | |
| AA1-15 | 2026-08-31 12:30:23 | 54.95134 | 19.26694 | 270° | 16km/h | 1678m | 8m/s | -51.8°C | 0% | 30.4hPa | 2.4V | 00:00:00 | 00:00:00 | 00:00:00 | |
| AA1-15 | 2026-08-31 12:30:21 | 54.95133 | 19.26706 | 270° | 15km/h | 1663m | 8m/s | -51.9°C | 0% | 30.5hPa | 2.4V | 00:00:00 | 00:00:00 | 00:00:00 | |
| AA1-15 | 2026-08-31 12:30:19 | 54.95134 | 19.26717 | 270° | 15km/h | 1648m | 8.1m/s | -51.8°C | 0% | 30.5hPa | 2.4V | 00:00:00 | 00:00:00 | 00:00:00 | |
| AA1-15 | 2026-08-31 12:30:17 | 54.95131 | 19.26729 | 270° | 13km/h | 1631m | 8m/s | -51.8°C | 0% | 30.6hPa | 2.4V | 00:00:00 | 00:00:00 | 00:00:00 | |
| AA1-15 | 2026-08-31 12:30:15 | 54.95126 | 19.26740 | 270° | 13km/h | 1609m | 8m/s | -51.8°C | 0% | 30.6hPa | 2.4V | 00:00:00 | 00:00:00 | 00:00:00 | |
| AA1-15 | 2026-08-31 12:30:12 | 54.95124 | 19.26752 | 273° | 13km/h | 1582m | 8.2m/s | -51.9°C | 0% | 30.7hPa | 2.4V | 00:00:00 | 00:00:00 | 00:00:00 | |
| AA1-15 | 2026-08-31 12:30:10 | 54.95128 | 19.26777 | 270° | 16km/h | 1546m | 8.1m/s | -51.8°C | 0% | 30.8hPa | 2.4V | 00:00:00 | 00:00:00 | 00:00:00 | |
| AA1-15 | 2026-08-31 12:30:07 | 54.95128 | 19.26790 | 269° | 15km/h | 1527m | 7.9m/s | -51.8°C | 0% | 30.9hPa | 2.4V | 00:00:00 | 00:00:00 | 00:00:00 | |
| AA1-15 | 2026-08-31 12:30:05 | 54.95126 | 19.26804 | 269° | 13km/h | 1505m | 8.1m/s | -51.9°C | 0% | 30.9hPa | 2.4V | 00:00:00 | 00:00:00 | 00:00:00 | |
| AA1-15 | 2026-08-31 12:30:03 | 54.95124 | 19.26812 | 270° | 16km/h | 1493m | 8.1m/s | -51.9°C | 0% | 31hPa | 2.4V | 00:00:00 | 00:00:00 | 00:00:00 | |
| AA1-15 | 2026-08-31 12:30:02 | 54.95119 | 19.26829 | 270° | 16km/h | 1469m | 8.1m/s | -51.9°C | 0% | 31hPa | 2.4V | 00:00:00 | 00:00:00 | 00:00:00 | |
| AA1-15 | 2026-08-31 12:30:01 | 54.95115 | 19.26839 | 271° | 13km/h | 1455m | 8.2m/s | -51.9°C | 0% | 31hPa | 2.4V | 00:00:00 | 00:00:00 | 00:00:00 | |
| AA1-15 | 2026-08-31 12:29:59 | 54.95113 | 19.26862 | 283° | 13km/h | 1419m | 9m/s | -51.9°C | 0% | 31.1hPa | 2.4V | 00:00:00 | 00:00:00 | 00:00:00 | |
| AA1-15 | 2026-08-31 12:29:57 | 54.95120 | 19.26868 | 270° | 16km/h | 1407m | 8.1m/s | -51.9°C | 0% | 31.1hPa | 2.4V | 00:00:00 | 00:00:00 | 00:00:00 | |
| AA1-15 | 2026-08-31 12:29:55 | 54.95137 | 19.26881 | 276° | 16km/h | 1384m | 8.5m/s | -51.8°C | 0% | 31.2hPa | 2.4V | 00:00:00 | 00:00:00 | 00:00:00 | |
| AA1-15 | 2026-08-31 12:29:53 | 54.95151 | 19.26891 | 269° | 13km/h | 1366m | 8.1m/s | -51.7°C | 0% | 31.3hPa | 2.4V | 00:00:00 | 00:00:00 | 00:00:00 | |
| AA1-15 | 2026-08-31 12:29:50 | 54.95145 | 19.26927 | 269° | 95km/h | 1350m | 8m/s | -51.7°C | 0% | 31.4hPa | 2.4V | 00:00:00 | 00:00:00 | 00:00:00 | |
| AA1-15 | 2026-08-31 12:29:50 | 54.95146 | 19.26969 | 261° | 97km/h | 1341m | 7.9m/s | -51.7°C | 0% | 31.4hPa | 2.4V | 00:00:00 | 00:00:00 | 00:00:00 | |
| AA1-15 | 2026-08-31 12:29:48 | 54.95171 | 19.27083 | 240° | 97km/h | 1319m | 8.1m/s | -51.6°C | 0% | 31.5hPa | 2.4V | 00:00:00 | 00:00:00 | 00:00:00 | |
| AA1-15 | 2026-08-31 12:29:46 | 54.95176 | 19.27077 | 238° | 93km/h | 1336m | 8.2m/s | -51.6°C | 0% | 31.5hPa | 2.4V | 00:00:00 | 00:00:00 | 00:00:00 | |
| AA1-15 | 2026-08-31 12:29:44 | 54.95208 | 19.27136 | 226° | 97km/h | 1321m | 7.9m/s | -51.6°C | 0% | 31.6hPa | 2.4V | 00:00:00 | 00:00:00 | 00:00:00 | |
| AA1-15 | 2026-08-31 12:29:42 | 54.95227 | 19.27167 | 218° | 97km/h | 1316m | 8.3m/s | -51.6°C | 0% | 31.6hPa | 2.4V | 00:00:00 | 00:00:00 | 00:00:00 | |
| AA1-15 | 2026-08-31 12:29:39 | 54.95293 | 19.27240 | 200° | 97km/h | 1301m | 8.1m/s | -51.5°C | 0% | 31.6hPa | 2.4V | 00:00:00 | 00:00:00 | 00:00:00 | |
| AA1-15 | 2026-08-31 12:29:38 | 54.95360 | 19.27338 | 181° | 100km/h | 1289m | 8.3m/s | -51.5°C | 0% | 31.8hPa | 2.4V | 00:00:00 | 00:00:00 | 00:00:00 | |
| AA1-15 | 2026-08-31 12:29:34 | 54.95431 | 19.27333 | 164° | 100km/h | 1268m | 8m/s | -51.6°C | 0% | 31.8hPa | 2.4V | 00:00:00 | 00:00:00 | 00:00:00 | |
| AA1-15 | 2026-08-31 12:29:33 | 54.95453 | 19.27319 | 157° | 100km/h | 1260m | 8.1m/s | -51.6°C | 0% | 31.9hPa | 2.4V | 00:00:00 | 00:00:00 | 00:00:00 | |
| AA1-15 | 2026-08-31 12:29:32 | 54.95472 | 19.27300 | 149° | 95km/h | 1253m | 8.1m/s | -51.6°C | 0% | 31.9hPa | 2.4V | 00:00:00 | 00:00:00 | 00:00:00 | |
| AA1-15 | 2026-08-31 12:29:30 | 54.95489 | 19.27278 | 146° | 97km/h | 1245m | 7.9m/s | -51.6°C | 0% | 31.9hPa | 2.4V | 00:00:00 | 00:00:00 | 00:00:00 | |
| AA1-15 | 2026-08-31 12:29:29 | 54.95507 | 19.27253 | 140° | 99km/h | 1238m | 8.1m/s | -51.6°C | 0% | 32hPa | 2.4V | 00:00:00 | 00:00:00 | 00:00:00 | |
| AA1-15 | 2026-08-31 12:29:27 | 54.95536 | 19.27192 | 125° | 95km/h | 1225m | 8.2m/s | -51.6°C | 0% | 32hPa | 2.4V | 00:00:00 | 00:00:00 | 00:00:00 | |
| AA1-15 | 2026-08-31 12:29:26 | 54.95555 | 19.27121 | 114° | 99km/h | 1210m | 8m/s | -51.6°C | 0% | 32.1hPa | 2.4V | 00:00:00 | 00:00:00 | 00:00:00 | |
| AA1-15 | 2026-08-31 12:29:25 | 54.95561 | 19.27085 | 109° | 97km/h | 1203m | 8.1m/s | -51.6°C | 0% | 32.1hPa | 2.4V | 00:00:00 | 00:00:00 | 00:00:00 | |
| AA1-15 | 2026-08-31 12:29:22 | 54.95570 | 19.26964 | 94° | 95km/h | 1180m | 8.1m/s | -51.5°C | 0% | 32.2hPa | 2.4V | 00:00:00 | 00:00:00 | 00:00:00 | |
| AA1-15 | 2026-08-31 12:29:21 | 54.95572 | 19.26916 | 86° | 95km/h | 1172m | 8.2m/s | -51.5°C | 0% | 32.2hPa | 2.4V | 00:00:00 | 00:00:00 | 00:00:00 | |
| AA1-15 | 2026-08-31 12:29:19 | 54.95565 | 19.26825 | 74° | 95km/h | 1154m | 7.9m/s | -51.4°C | 0% | 32.3hPa | 2.4V | 00:00:00 | 00:00:00 | 00:00:00 | |
| AA1-15 | 2026-08-31 12:29:17 | 54.95547 | 19.26748 | 60° | 95km/h | 1140m | 8.1m/s | -51.4°C | 0% | 32.4hPa | 2.4V | 00:00:00 | 00:00:00 | 00:00:00 | |
| AA1-15 | 2026-08-31 12:29:14 | 54.95520 | 19.26679 | 49° | 95km/h | 1130m | 8.2m/s | -51.5°C | 0% | 32.4hPa | 2.4V | 00:00:00 | 00:00:00 | 00:00:00 | |
| AA1-15 | 2026-08-31 12:29:12 | 54.95484 | 19.26621 | 38° | 93km/h | 1118m | 8m/s | -51.6°C | 0% | 32.5hPa | 2.4V | 00:00:00 | 00:00:00 | 00:00:00 | |
| AA1-15 | 2026-08-31 12:29:11 | 54.95443 | 19.26578 | 24° | 95km/h | 1103m | 7.9m/s | -51.6°C | 0% | 32.5hPa | 2.4V | 00:00:00 | 00:00:00 | 00:00:00 | |
| AA1-15 | 2026-08-31 12:29:09 | 54.95420 | 19.26562 | 19° | 95km/h | 1096m | 8.1m/s | -51.6°C | 0% | 32.6hPa | 2.4V | 00:00:00 | 00:00:00 | 00:00:00 | |
| AA1-15 | 2026-08-31 12:29:08 | 54.95373 | 19.26543 | 6° | 95km/h | 1081m | 8.2m/s | -51.6°C | 0% | 32.6hPa | 2.4V | 00:00:00 | 00:00:00 | 00:00:00 | |
| AA1-15 | 2026-08-31 12:29:06 | 54.95349 | 19.26540 | 0° | 93km/h | 1073m | 8.1m/s | -51.6°C | 0% | 32.7hPa | 2.4V | 00:00:00 | 00:00:00 | 00:00:00 | |
| AA1-15 | 2026-08-31 12:29:05 | 54.95300 | 19.26539 | 0° | 100km/h | 1057m | 8.2m/s | -51.7°C | 0% | 32.7hPa | 2.4V | 00:00:00 | 00:00:00 | 00:00:00 | |
| AA1-15 | 2026-08-31 12:29:03 | 54.95251 | 19.26539 | 0° | 100km/h | 1042m | 8m/s | -51.6°C | 0% | 32.8hPa | 2.4V | 00:00:00 | 00:00:00 | 00:00:00 | |
| AA1-15 | 2026-08-31 12:29:02 | 54.95226 | 19.26539 | 0° | 95km/h | 1034m | 8.1m/s | -51.6°C | 0% | 32.8hPa | 2.4V | 00:00:00 | 00:00:00 | 00:00:00 | |
| AA1-15 | 2026-08-31 12:29:00 | 54.95177 | 19.26538 | 0° | 93km/h | 1017m | 7.9m/s | -51.5°C | 0% | 32.9hPa | 2.4V | 00:00:00 | 00:00:00 | 00:00:00 | |
| AA1-15 | 2026-08-31 12:28:57 | 54.95130 | 19.26537 | 0° | 93km/h | 1001m | 8.2m/s | -51.5°C | 0% | 33hPa | 2.4V | 00:00:00 | 00:00:00 | 00:00:00 | |
| AA1-15 | 2026-08-31 12:28:57 | 54.95105 | 19.26538 | 1° | 95km/h | 993m | 8.3m/s | -51.5°C | 0% | 33hPa | 2.4V | 00:00:00 | 00:00:00 | 00:00:00 | |
| AA1-15 | 2026-08-31 12:28:55 | 54.95057 | 19.26542 | 0° | 95km/h | 976m | 8.1m/s | -51.5°C | 0% | 33hPa | 2.4V | 00:00:00 | 00:00:00 | 00:00:00 | |
| AA1-15 | 2026-08-31 12:28:54 | 54.95033 | 19.26544 | 0° | 100km/h | 960m | 8.2m/s | -51.5°C | 0% | 33.1hPa | 2.4V | 00:00:00 | 00:00:00 | 00:00:00 | |
| AA1-15 | 2026-08-31 12:28:52 | 54.94986 | 19.26548 | 0° | 100km/h | 928m | 8.1m/s | -51.6°C | 0% | 33.1hPa | 2.4V | 00:00:00 | 00:00:00 | 00:00:00 | |
| AA1-15 | 2026-08-31 12:28:52 | 54.94962 | 19.26548 | 0° | 95km/h | 912m | 8.1m/s | -51.7°C | 0% | 33.1hPa | 2.4V | 00:00:00 | 00:00:00 | 00:00:00 | |
| AA1-15 | 2026-08-31 12:28:49 | 54.94915 | 19.26547 | 0° | 95km/h | 884m | 8.5m/s | -51.8°C | 0% | 33.2hPa | 2.4V | 00:00:00 | 00:00:00 | 00:00:00 | |
| AA1-15 | 2026-08-31 12:28:47 | 54.94893 | 19.26544 | 8° | 97km/h | 874m | 8.1m/s | -51.8°C | 0% | 33.3hPa | 2.4V | 00:00:00 | 00:00:00 | 00:00:00 | |
| AA1-15 | 2026-08-31 12:28:46 | 54.94850 | 19.26506 | 43° | 100km/h | 856m | 8.1m/s | -51.8°C | 0% | 33.3hPa | 2.4V | 00:00:00 | 00:00:00 | 00:00:00 | |
| AA1-15 | 2026-08-31 12:28:44 | 54.94826 | 19.26433 | 80° | 97km/h | 839m | 8.1m/s | -51.9°C | 0% | 33.4hPa | 2.4V | 00:00:00 | 00:00:00 | 00:00:00 | |
| AA1-15 | 2026-08-31 12:28:43 | 54.94826 | 19.26391 | 100° | 95km/h | 831m | 8m/s | -51.8°C | 0% | 33.4hPa | 2.4V | 00:00:00 | 00:00:00 | 00:00:00 | |
| AA1-15 | 2026-08-31 12:28:41 | 54.94850 | 19.26314 | 133° | 95km/h | 816m | 8.1m/s | -51.9°C | 0% | 33.5hPa | 2.4V | 00:00:00 | 00:00:00 | 00:00:00 | |
| AA1-15 | 2026-08-31 12:28:39 | 54.94895 | 19.26273 | 169° | 97km/h | 799m | 7.9m/s | -51.9°C | 0% | 33.6hPa | 2.4V | 00:00:00 | 00:00:00 | 00:00:00 | |
| AA1-15 | 2026-08-31 12:28:37 | 54.94918 | 19.26273 | 189° | 89km/h | 791m | 8.1m/s | -51.9°C | 0% | 33.6hPa | 2.4V | 00:00:00 | 00:00:00 | 00:00:00 | |
| AA1-15 | 2026-08-31 12:28:35 | 54.94962 | 19.26313 | 224° | 95km/h | 777m | 8m/s | -52°C | 0% | 33.7hPa | 2.4V | 00:00:00 | 00:00:00 | 00:00:00 | |
| AA1-15 | 2026-08-31 12:28:35 | 54.94976 | 19.26348 | 241° | 97km/h | 769m | 8.4m/s | -52°C | 0% | 33.7hPa | 2.4V | 00:00:00 | 00:00:00 | 00:00:00 | |
| AA1-15 | 2026-08-31 12:28:33 | 54.94984 | 19.26430 | 270° | 95km/h | 752m | 7.9m/s | -52°C | 0% | 33.7hPa | 2.4V | 00:00:00 | 00:00:00 | 00:00:00 | |
| AA1-15 | 2026-08-31 12:28:32 | 54.94985 | 19.26474 | 270° | 95km/h | 743m | 7.9m/s | -52.1°C | 0% | 33.8hPa | 2.4V | 00:00:00 | 00:00:00 | 00:00:00 | |
| AA1-15 | 2026-08-31 12:28:31 | 54.94983 | 19.26558 | 270° | 99km/h | 729m | 8.1m/s | -52°C | 0% | 33.9hPa | 2.4V | 00:00:00 | 00:00:00 | 00:00:00 | |
| AA1-15 | 2026-08-31 12:28:29 | 54.94981 | 19.26599 | 270° | 97km/h | 723m | 8.1m/s | -52°C | 0% | 33.9hPa | 2.4V | 00:00:00 | 00:00:00 | 00:00:00 | |
| AA1-15 | 2026-08-31 12:28:27 | 54.94982 | 19.26641 | 270° | 95km/h | 716m | 7.9m/s | -52°C | 0% | 33.9hPa | 2.4V | 00:00:00 | 00:00:00 | 00:00:00 | |
| AA1-15 | 2026-08-31 12:28:27 | 54.94982 | 19.26684 | 270° | 95km/h | 708m | 8m/s | -52°C | 0% | 33.9hPa | 2.4V | 00:00:00 | 00:00:00 | 00:00:00 | |
| AA1-15 | 2026-08-31 12:28:25 | 54.94980 | 19.26765 | 270° | 99km/h | 701m | 8.1m/s | -51.9°C | 0% | 34hPa | 2.4V | 00:00:00 | 00:00:00 | 00:00:00 | |
| AA1-15 | 2026-08-31 12:28:24 | 54.94978 | 19.26806 | 271° | 95km/h | 698m | 8.4m/s | -52°C | 0% | 34hPa | 2.4V | 00:00:00 | 00:00:00 | 00:00:00 | |
| AA1-15 | 2026-08-31 12:28:22 | 54.94978 | 19.26850 | 270° | 95km/h | 684m | 8m/s | -52°C | 0% | 34hPa | 2.4V | 00:00:00 | 00:00:00 | 00:00:00 | |
| AA1-15 | 2026-08-31 12:28:21 | 54.94980 | 19.26896 | 270° | 99km/h | 671m | 8.1m/s | -51.9°C | 0% | 34.1hPa | 2.4V | 00:00:00 | 00:00:00 | 00:00:00 | |
| AA1-15 | 2026-08-31 12:28:20 | 54.95021 | 19.27031 | 270° | 95km/h | 627m | 8.1m/s | -51.9°C | 0% | 34.2hPa | 2.4V | 00:00:00 | 00:00:00 | 00:00:00 | |
| AA1-15 | 2026-08-31 12:28:18 | 55.32527 | 17.63361 | 0° | 0km/h | 159087m | 0m/s | -52°C | 0% | 34.2hPa | 2.4V | 00:00:00 | 00:00:00 | 00:00:00 | |
| AA1-15 | 2026-08-31 12:28:07 | 55.08214 | 19.72968 | 129° | 22km/h | 159087m | 12.6m/s | -52.2°C | 0% | 34.6hPa | 2.4V | 00:00:00 | 00:00:00 | 00:00:00 | |
| AA1-15 | 2026-08-31 12:27:57 | 55.08245 | 19.72905 | 269° | 15km/h | 2637m | 8.1m/s | -52.3°C | 0% | 35hPa | 2.4V | 00:00:00 | 00:00:00 | 00:00:00 | |
| AA1-15 | 2026-08-31 12:27:45 | 55.08192 | 19.72959 | 273° | 13km/h | 2534m | 8.2m/s | -52.1°C | 0% | 35.3hPa | 2.4V | 00:00:00 | 00:00:00 | 00:00:00 | |
| AA1-15 | 2026-08-31 12:27:34 | 55.08299 | 19.73065 | 209° | 24km/h | 2422m | 10.7m/s | -52.1°C | 0% | 35.6hPa | 2.4V | 00:00:00 | 00:00:00 | 00:00:00 | |
| AA1-15 | 2026-08-31 12:27:23 | 55.08294 | 19.73137 | 270° | 16km/h | 2343m | 8m/s | -52.6°C | 0% | 36hPa | 2.4V | 00:00:00 | 00:00:00 | 00:00:00 | |
| AA1-15 | 2026-08-31 12:27:13 | 55.08255 | 19.73182 | 270° | 13km/h | 159087m | 8m/s | -52.8°C | 0% | 36.3hPa | 2.4V | 00:00:00 | 00:00:00 | 00:00:00 | |
| AA1-15 | 2026-08-31 12:27:01 | 55.08245 | 19.73252 | 270° | 16km/h | 2183m | 8.1m/s | -52.8°C | 0% | 36.7hPa | 2.4V | 00:00:00 | 00:00:00 | 00:00:00 | |
| AA1-15 | 2026-08-31 12:26:50 | 55.08233 | 19.73317 | 269° | 13km/h | 2079m | 8.3m/s | -52.6°C | 0% | 37.1hPa | 2.4V | 00:00:00 | 00:00:00 | 00:00:00 | |
| AA1-15 | 2026-08-31 12:26:39 | 55.08252 | 19.73387 | 269° | 15km/h | 1993m | 8m/s | -52.6°C | 0% | 37.4hPa | 2.4V | 00:00:00 | 00:00:00 | 00:00:00 | |
| AA1-15 | 2026-08-31 12:26:37 | 55.08254 | 19.73401 | 268° | 13km/h | 1977m | 8m/s | -52.6°C | 0% | 37.5hPa | 2.4V | 00:00:00 | 00:00:00 | 00:00:00 | |
| AA1-15 | 2026-08-31 12:26:35 | 55.08254 | 19.73406 | 269° | 13km/h | 1968m | 8m/s | -52.6°C | 0% | 37.5hPa | 2.4V | 00:00:00 | 00:00:00 | 00:00:00 | |
| AA1-15 | 2026-08-31 12:26:34 | 55.08255 | 19.73412 | 270° | 13km/h | 1960m | 8m/s | -52.7°C | 0% | 37.6hPa | 2.4V | 00:00:00 | 00:00:00 | 00:00:00 | |
| AA1-15 | 2026-08-31 12:26:33 | 55.08259 | 19.73434 | 277° | 13km/h | 1938m | 8.2m/s | -52.7°C | 0% | 37.7hPa | 2.4V | 00:00:00 | 00:00:00 | 00:00:00 | |
| AA1-15 | 2026-08-31 12:26:32 | 55.08261 | 19.73456 | 270° | 16km/h | 1916m | 8.1m/s | -52.8°C | 0% | 37.8hPa | 2.4V | 00:00:00 | 00:00:00 | 00:00:00 | |
| AA1-15 | 2026-08-31 12:26:29 | 55.08259 | 19.73468 | 269° | 13km/h | 1900m | 7.9m/s | -52.8°C | 0% | 37.8hPa | 2.4V | 00:00:00 | 00:00:00 | 00:00:00 | |
| AA1-15 | 2026-08-31 12:26:27 | 55.08257 | 19.73472 | 270° | 13km/h | 1892m | 8m/s | -52.8°C | 0% | 37.9hPa | 2.4V | 00:00:00 | 00:00:00 | 00:00:00 | |
| AA1-15 | 2026-08-31 12:26:25 | 55.08256 | 19.73479 | 269° | 16km/h | 1883m | 8.1m/s | -52.7°C | 0% | 37.9hPa | 2.4V | 00:00:00 | 00:00:00 | 00:00:00 | |
| AA1-15 | 2026-08-31 12:26:23 | 55.08240 | 19.73489 | 269° | 13km/h | 1863m | 8.1m/s | -52.8°C | 0% | 38hPa | 2.4V | 00:00:00 | 00:00:00 | 00:00:00 | |
| AA1-15 | 2026-08-31 12:26:22 | 55.08231 | 19.73500 | 267° | 15km/h | 1849m | 8.1m/s | -52.7°C | 0% | 38.1hPa | 2.4V | 00:00:00 | 00:00:00 | 00:00:00 | |
| AA1-15 | 2026-08-31 12:26:20 | 55.08236 | 19.73519 | 273° | 13km/h | 1831m | 8.2m/s | -52.6°C | 0% | 38.1hPa | 2.4V | 00:00:00 | 00:00:00 | 00:00:00 | |
| AA1-15 | 2026-08-31 12:26:19 | 55.08237 | 19.73522 | 269° | 13km/h | 1823m | 7.9m/s | -52.5°C | 0% | 38.2hPa | 2.4V | 00:00:00 | 00:00:00 | 00:00:00 | |
| AA1-15 | 2026-08-31 12:26:16 | 55.08238 | 19.73528 | 270° | 15km/h | 1815m | 8m/s | -52.5°C | 0% | 38.2hPa | 2.4V | 00:00:00 | 00:00:00 | 00:00:00 | |
| AA1-15 | 2026-08-31 12:26:14 | 55.08239 | 19.73534 | 271° | 16km/h | 1808m | 8m/s | -52.5°C | 0% | 38.2hPa | 2.4V | 00:00:00 | 00:00:00 | 00:00:00 | |
| AA1-15 | 2026-08-31 12:26:12 | 55.08241 | 19.73543 | 270° | 13km/h | 1792m | 8.1m/s | -52.4°C | 0% | 38.3hPa | 2.4V | 00:00:00 | 00:00:00 | 00:00:00 | |
| AA1-15 | 2026-08-31 12:26:11 | 55.08241 | 19.73548 | 269° | 15km/h | 1784m | 8.1m/s | -52.4°C | 0% | 38.3hPa | 2.4V | 00:00:00 | 00:00:00 | 00:00:00 | |
| AA1-15 | 2026-08-31 12:26:09 | 55.08241 | 19.73569 | 270° | 13km/h | 1750m | 8m/s | -52.3°C | 0% | 38.5hPa | 2.4V | 00:00:00 | 00:00:00 | 00:00:00 | |
| AA1-15 | 2026-08-31 12:26:08 | 55.08241 | 19.73573 | 270° | 15km/h | 1741m | 8m/s | -52.3°C | 0% | 38.5hPa | 2.4V | 00:00:00 | 00:00:00 | 00:00:00 | |
| AA1-15 | 2026-08-31 12:26:04 | 55.08239 | 19.73582 | 272° | 13km/h | 1723m | 8m/s | -52.3°C | 0% | 38.6hPa | 2.4V | 00:00:00 | 00:00:00 | 00:00:00 | |
| AA1-15 | 2026-08-31 12:26:02 | 55.08239 | 19.73592 | 272° | 13km/h | 1709m | 8.2m/s | -52.2°C | 0% | 38.7hPa | 2.4V | 00:00:00 | 00:00:00 | 00:00:00 | |
| AA1-15 | 2026-08-31 12:26:00 | 55.08238 | 19.73604 | 269° | 13km/h | 1694m | 8m/s | -52.2°C | 0% | 38.8hPa | 2.4V | 00:00:00 | 00:00:00 | 00:00:00 | |
| AA1-15 | 2026-08-31 12:25:59 | 55.08231 | 19.73652 | 270° | 13km/h | 1661m | 8.1m/s | -52°C | 0% | 38.9hPa | 2.4V | 00:00:00 | 00:00:00 | 00:00:00 | |
| AA1-15 | 2026-08-31 12:25:57 | 55.08236 | 19.73661 | 270° | 13km/h | 1650m | 8m/s | -52°C | 0% | 39hPa | 2.4V | 00:00:00 | 00:00:00 | 00:00:00 | |
| AA1-15 | 2026-08-31 12:25:55 | 55.08239 | 19.73669 | 268° | 15km/h | 1640m | 8.2m/s | -52°C | 0% | 39hPa | 2.4V | 00:00:00 | 00:00:00 | 00:00:00 | |
| AA1-15 | 2026-08-31 12:25:51 | 55.08243 | 19.73706 | 269° | 95km/h | 1624m | 8m/s | -52°C | 0% | 39hPa | 2.4V | 00:00:00 | 00:00:00 | 00:00:00 | |
| AA1-15 | 2026-08-31 12:25:50 | 55.08245 | 19.73748 | 261° | 97km/h | 1616m | 8m/s | -51.9°C | 0% | 39.1hPa | 2.4V | 00:00:00 | 00:00:00 | 00:00:00 | |
| AA1-15 | 2026-08-31 12:25:49 | 55.08268 | 19.73868 | 241° | 100km/h | 1592m | 8.1m/s | -51.9°C | 0% | 39.2hPa | 2.4V | 00:00:00 | 00:00:00 | 00:00:00 | |
| AA1-15 | 2026-08-31 12:25:47 | 55.08293 | 19.73939 | 233° | 95km/h | 1576m | 8m/s | -51.9°C | 0% | 39.2hPa | 2.4V | 00:00:00 | 00:00:00 | 00:00:00 | |
| AA1-15 | 2026-08-31 12:25:45 | 55.08327 | 19.73998 | 218° | 95km/h | 1559m | 8.2m/s | -51.9°C | 0% | 39.3hPa | 2.4V | 00:00:00 | 00:00:00 | 00:00:00 | |
| AA1-15 | 2026-08-31 12:25:41 | 55.08390 | 19.74065 | 201° | 97km/h | 1540m | 8m/s | -51.8°C | 0% | 39.4hPa | 2.4V | 00:00:00 | 00:00:00 | 00:00:00 | |
| AA1-15 | 2026-08-31 12:25:40 | 55.08413 | 19.74076 | 194° | 99km/h | 1534m | 8.1m/s | -51.7°C | 0% | 39.5hPa | 2.4V | 00:00:00 | 00:00:00 | 00:00:00 | |
| AA1-15 | 2026-08-31 12:25:37 | 55.08486 | 19.74079 | 176° | 95km/h | 1514m | 8.1m/s | -51.7°C | 0% | 39.6hPa | 2.4V | 00:00:00 | 00:00:00 | 00:00:00 | |
| AA1-15 | 2026-08-31 12:25:35 | 55.08510 | 19.74072 | 169° | 97km/h | 1506m | 8.2m/s | -51.7°C | 0% | 39.6hPa | 2.4V | 00:00:00 | 00:00:00 | 00:00:00 | |
| AA1-15 | 2026-08-31 12:25:34 | 55.08558 | 19.74044 | 159° | 99km/h | 1489m | 8m/s | -51.6°C | 0% | 39.7hPa | 2.4V | 00:00:00 | 00:00:00 | 00:00:00 | |
| AA1-15 | 2026-08-31 12:25:32 | 55.08579 | 19.74022 | 152° | 93km/h | 1481m | 7.9m/s | -51.6°C | 0% | 39.7hPa | 2.4V | 00:00:00 | 00:00:00 | 00:00:00 | |
| AA1-15 | 2026-08-31 12:25:30 | 55.08619 | 19.73971 | 140° | 100km/h | 1464m | 8.2m/s | -51.6°C | 0% | 39.8hPa | 2.4V | 00:00:00 | 00:00:00 | 00:00:00 | |
| AA1-15 | 2026-08-31 12:25:28 | 55.08650 | 19.73904 | 125° | 95km/h | 1447m | 8m/s | -51.7°C | 0% | 39.9hPa | 2.4V | 00:00:00 | 00:00:00 | 00:00:00 | |
| AA1-15 | 2026-08-31 12:25:27 | 55.08708 | 19.73681 | 97° | 99km/h | 1401m | 8m/s | -51.8°C | 0% | 40hPa | 2.4V | 00:00:00 | 00:00:00 | 00:00:00 | |
| AA1-15 | 2026-08-31 12:25:24 | 55.08713 | 19.73627 | 88° | 100km/h | 1394m | 10.6m/s | -51.8°C | 0% | 40hPa | 2.4V | 00:00:00 | 00:00:00 | 00:00:00 | |
| AA1-15 | 2026-08-31 12:25:19 | 55.08675 | 19.73524 | 74° | 95km/h | 1369m | 8m/s | -52°C | 0% | 40.1hPa | 2.4V | 00:00:00 | 00:00:00 | 00:00:00 | |
| AA1-15 | 2026-08-31 12:25:18 | 55.08664 | 19.73489 | 69° | 91km/h | 1363m | 8.4m/s | -52°C | 0% | 40.2hPa | 2.4V | 00:00:00 | 00:00:00 | 00:00:00 | |
| AA1-15 | 2026-08-31 12:25:14 | 55.08568 | 19.73308 | 30° | 95km/h | 1315m | 8m/s | -52°C | 0% | 40.4hPa | 2.4V | 00:00:00 | 00:00:00 | 00:00:00 | |
| AA1-15 | 2026-08-31 12:25:12 | 55.08546 | 19.73287 | 27° | 97km/h | 1304m | 8.2m/s | -52°C | 0% | 40.4hPa | 2.4V | 00:00:00 | 00:00:00 | 00:00:00 | |
| AA1-15 | 2026-08-31 12:25:11 | 55.08524 | 19.73271 | 19° | 95km/h | 1295m | 8.1m/s | -52°C | 0% | 40.5hPa | 2.4V | 00:00:00 | 00:00:00 | 00:00:00 | |
| AA1-15 | 2026-08-31 12:25:09 | 55.08473 | 19.73252 | 6° | 95km/h | 1276m | 8.2m/s | -52°C | 0% | 40.5hPa | 2.4V | 00:00:00 | 00:00:00 | 00:00:00 | |
| AA1-15 | 2026-08-31 12:25:06 | 55.08418 | 19.73244 | 0° | 93km/h | 1256m | 8.1m/s | -52.1°C | 0% | 40.6hPa | 2.4V | 00:00:00 | 00:00:00 | 00:00:00 | |
| AA1-15 | 2026-08-31 12:25:05 | 55.08364 | 19.73242 | 0° | 93km/h | 1254m | 8.1m/s | -52.1°C | 0% | 40.7hPa | 2.4V | 00:00:00 | 00:00:00 | 00:00:00 | |
| AA1-15 | 2026-08-31 12:25:03 | 55.08313 | 19.73245 | 0° | 95km/h | 1246m | 8m/s | -52.1°C | 0% | 40.8hPa | 2.4V | 00:00:00 | 00:00:00 | 00:00:00 | |
| AA1-15 | 2026-08-31 12:25:01 | 55.08267 | 19.73254 | 0° | 95km/h | 1239m | 8.3m/s | -52.1°C | 0% | 40.9hPa | 2.4V | 00:00:00 | 00:00:00 | 00:00:00 | |
| AA1-15 | 2026-08-31 12:25:00 | 55.08246 | 19.73260 | 0° | 95km/h | 1237m | 7.8m/s | -52.1°C | 0% | 40.9hPa | 2.4V | 00:00:00 | 00:00:00 | 00:00:00 | |
| AA1-15 | 2026-08-31 12:24:58 | 55.08223 | 19.73262 | 0° | 93km/h | 1229m | 8m/s | -52.1°C | 0% | 40.9hPa | 2.4V | 00:00:00 | 00:00:00 | 00:00:00 | |
| AA1-15 | 2026-08-31 12:24:57 | 55.08199 | 19.73262 | 0° | 95km/h | 1220m | 8.1m/s | -52.1°C | 0% | 41hPa | 2.4V | 00:00:00 | 00:00:00 | 00:00:00 | |
| AA1-15 | 2026-08-31 12:24:49 | 55.07981 | 19.73253 | 6° | 97km/h | 1148m | 8.1m/s | -52.1°C | 0% | 41.3hPa | 2.4V | 00:00:00 | 00:00:00 | 00:00:00 | |
| AA1-15 | 2026-08-31 12:24:48 | 55.07957 | 19.73240 | 26° | 97km/h | 1142m | 8.1m/s | -52°C | 0% | 41.3hPa | 2.4V | 00:00:00 | 00:00:00 | 00:00:00 | |
| AA1-15 | 2026-08-31 12:24:44 | 55.07916 | 19.73050 | 116° | 97km/h | 1108m | 8m/s | -52.1°C | 0% | 41.5hPa | 2.4V | 00:00:00 | 00:00:00 | 00:00:00 | |
| AA1-15 | 2026-08-31 12:24:40 | 55.07929 | 19.72985 | 153° | 97km/h | 1096m | 7.9m/s | -52°C | 0% | 41.6hPa | 2.4V | 00:00:00 | 00:00:00 | 00:00:00 | |
| AA1-15 | 2026-08-31 12:24:39 | 55.07968 | 19.72966 | 189° | 89km/h | 1081m | 8m/s | -52°C | 0% | 41.7hPa | 2.4V | 00:00:00 | 00:00:00 | 00:00:00 | |
| AA1-15 | 2026-08-31 12:24:37 | 55.07986 | 19.72975 | 206° | 100km/h | 1072m | 8m/s | -52°C | 0% | 41.7hPa | 2.4V | 00:00:00 | 00:00:00 | 00:00:00 | |
| AA1-15 | 2026-08-31 12:24:35 | 55.08011 | 19.73025 | 242° | 97km/h | 1056m | 8m/s | -52°C | 0% | 41.8hPa | 2.4V | 00:00:00 | 00:00:00 | 00:00:00 | |
| AA1-15 | 2026-08-31 12:24:31 | 55.07997 | 19.73214 | 270° | 99km/h | 1037m | 8.1m/s | -52.1°C | 0% | 42hPa | 2.4V | 00:00:00 | 00:00:00 | 00:00:00 | |
| AA1-15 | 2026-08-31 12:24:29 | 55.07990 | 19.73252 | 270° | 95km/h | 1037m | 8.1m/s | -52.1°C | 0% | 42hPa | 2.4V | 00:00:00 | 00:00:00 | 00:00:00 | |
| AA1-15 | 2026-08-31 12:24:28 | 55.07981 | 19.73287 | 270° | 95km/h | 1043m | 8.2m/s | -52.1°C | 0% | 42hPa | 2.4V | 00:00:00 | 00:00:00 | 00:00:00 | |
| AA1-15 | 2026-08-31 12:24:27 | 55.07966 | 19.73361 | 270° | 99km/h | 1061m | 8.2m/s | -52.1°C | 0% | 42.1hPa | 2.4V | 00:00:00 | 00:00:00 | 00:00:00 | |
| AA1-15 | 2026-08-31 12:24:23 | 55.07826 | 19.73546 | 269° | 95km/h | 1326m | 9.3m/s | -52.2°C | 0% | 42.4hPa | 2.4V | 00:00:00 | 00:00:00 | 00:00:00 | |
| AA1-15 | 2026-08-31 12:24:19 | 55.07787 | 19.73550 | 262° | 95km/h | 1434m | 8.2m/s | -52.2°C | 0% | 42.4hPa | 2.4V | 00:00:00 | 00:00:00 | 00:00:00 | |
| AA1-15 | 2026-08-31 12:24:17 | 55.07732 | 19.73544 | 257° | 95km/h | 1580m | 8.1m/s | -52.1°C | 0% | 42.4hPa | 2.4V | 00:00:00 | 00:00:00 | 00:00:00 | |
| AA1-15 | 2026-08-31 12:24:15 | 55.07651 | 19.73541 | 237° | 93km/h | 1783m | 8.5m/s | -52.1°C | 0% | 42.5hPa | 2.4V | 00:00:00 | 00:00:00 | 00:00:00 | |
| AA1-15 | 2026-08-31 12:24:14 | 55.07601 | 19.73522 | 228° | 93km/h | 1859m | 8.4m/s | -52.2°C | 0% | 42.5hPa | 2.4V | 00:00:00 | 00:00:00 | 00:00:00 | |
| AA1-15 | 2026-08-31 12:24:10 | 55.07214 | 19.73276 | 188° | 95km/h | 2387m | 0.9m/s | -52.3°C | 0% | 42.7hPa | 2.4V | 00:00:00 | 00:00:00 | 00:00:00 | |
| AA1-15 | 2026-08-31 12:23:59 | 54.92094 | 19.89522 | 270° | 16km/h | 159087m | 8m/s | -52.3°C | 0% | 43.1hPa | 2.4V | 00:00:00 | 00:00:00 | 00:00:00 | |
| AA1-15 | 2026-08-31 12:23:49 | 54.92122 | 19.89597 | 270° | 13km/h | 2544m | 8m/s | -52.4°C | 0% | 43.6hPa | 2.4V | 00:00:00 | 00:00:00 | 00:00:00 | |
| AA1-15 | 2026-08-31 12:23:38 | 54.92125 | 19.89653 | 269° | 15km/h | 2466m | 8m/s | -52.3°C | 0% | 43.9hPa | 2.4V | 00:00:00 | 00:00:00 | 00:00:00 | |
| AA1-15 | 2026-08-31 12:23:29 | 54.92139 | 19.89734 | 267° | 15km/h | 2347m | 8.2m/s | -52.3°C | 0% | 44.3hPa | 2.4V | 00:00:00 | 00:00:00 | 00:00:00 | |
| AA1-15 | 2026-08-31 12:23:18 | 54.92134 | 19.89832 | 269° | 13km/h | 2267m | 8m/s | -52.3°C | 0% | 44.7hPa | 2.4V | 00:00:00 | 00:00:00 | 00:00:00 | |
| AA1-15 | 2026-08-31 12:23:07 | 54.92133 | 19.89895 | 271° | 13km/h | 2191m | 8.1m/s | -52.5°C | 0% | 45.1hPa | 2.4V | 00:00:00 | 00:00:00 | 00:00:00 | |
| AA1-15 | 2026-08-31 12:22:56 | 54.92136 | 19.89961 | 269° | 13km/h | 2103m | 7.9m/s | -52.5°C | 0% | 45.5hPa | 2.4V | 00:00:00 | 00:00:00 | 00:00:00 | |
| AA1-15 | 2026-08-31 12:22:46 | 54.92134 | 19.90059 | 271° | 16km/h | 1965m | 8.2m/s | -52.7°C | 0% | 46.2hPa | 2.4V | 00:00:00 | 00:00:00 | 00:00:00 | |
| AA1-15 | 2026-08-31 12:22:44 | 54.92135 | 19.90067 | 269° | 13km/h | 1957m | 8m/s | -52.8°C | 0% | 46.2hPa | 2.4V | 00:00:00 | 00:00:00 | 00:00:00 | |
| AA1-15 | 2026-08-31 12:22:40 | 54.92135 | 19.90074 | 270° | 16km/h | 1948m | 8m/s | -52.8°C | 0% | 46.3hPa | 2.4V | 00:00:00 | 00:00:00 | 00:00:00 | |
| AA1-15 | 2026-08-31 12:22:37 | 54.92136 | 19.90082 | 270° | 13km/h | 1938m | 8m/s | -52.8°C | 0% | 46.4hPa | 2.4V | 00:00:00 | 00:00:00 | 00:00:00 | |
| AA1-15 | 2026-08-31 12:22:35 | 54.92137 | 19.90098 | 270° | 13km/h | 1920m | 8m/s | -52.9°C | 0% | 46.4hPa | 2.4V | 00:00:00 | 00:00:00 | 00:00:00 | |
| AA1-15 | 2026-08-31 12:22:34 | 54.92140 | 19.90117 | 268° | 13km/h | 1905m | 8m/s | -52.9°C | 0% | 46.5hPa | 2.4V | 00:00:00 | 00:00:00 | 00:00:00 | |
| AA1-15 | 2026-08-31 12:22:33 | 54.92141 | 19.90126 | 271° | 18km/h | 1897m | 8.1m/s | -52.9°C | 0% | 46.6hPa | 2.4V | 00:00:00 | 00:00:00 | 00:00:00 | |
| AA1-15 | 2026-08-31 12:22:31 | 54.92142 | 19.90134 | 270° | 13km/h | 1889m | 8m/s | -52.9°C | 0% | 46.6hPa | 2.4V | 00:00:00 | 00:00:00 | 00:00:00 | |
| AA1-15 | 2026-08-31 12:22:30 | 54.92145 | 19.90146 | 271° | 13km/h | 1873m | 8m/s | -53°C | 0% | 46.7hPa | 2.4V | 00:00:00 | 00:00:00 | 00:00:00 | |
| AA1-15 | 2026-08-31 12:22:29 | 54.92147 | 19.90151 | 271° | 15km/h | 1865m | 8m/s | -53°C | 0% | 46.7hPa | 2.4V | 00:00:00 | 00:00:00 | 00:00:00 | |
| AA1-15 | 2026-08-31 12:22:25 | 54.92150 | 19.90169 | 272° | 13km/h | 1840m | 8.1m/s | -53.2°C | 0% | 46.8hPa | 2.4V | 00:00:00 | 00:00:00 | 00:00:00 | |
| AA1-15 | 2026-08-31 12:22:23 | 54.92160 | 19.90187 | 271° | 13km/h | 1832m | 8.1m/s | -53.2°C | 0% | 46.9hPa | 2.4V | 00:00:00 | 00:00:00 | 00:00:00 | |
| AA1-15 | 2026-08-31 12:22:22 | 54.92160 | 19.90193 | 270° | 13km/h | 1830m | 8.1m/s | -53.2°C | 0% | 47hPa | 2.4V | 00:00:00 | 00:00:00 | 00:00:00 | |
| AA1-15 | 2026-08-31 12:22:21 | 54.92156 | 19.90208 | 270° | 16km/h | 1799m | 8m/s | -53.1°C | 0% | 47.1hPa | 2.4V | 00:00:00 | 00:00:00 | 00:00:00 | |
| AA1-15 | 2026-08-31 12:22:20 | 54.92154 | 19.90215 | 269° | 13km/h | 1790m | 8.1m/s | -53.1°C | 0% | 47.1hPa | 2.4V | 00:00:00 | 00:00:00 | 00:00:00 | |
| AA1-15 | 2026-08-31 12:22:18 | 54.92153 | 19.90221 | 264° | 16km/h | 1782m | 7.8m/s | -53.1°C | 0% | 47.2hPa | 2.4V | 00:00:00 | 00:00:00 | 00:00:00 | |
| AA1-15 | 2026-08-31 12:22:16 | 54.92150 | 19.90228 | 269° | 13km/h | 1774m | 8m/s | -53°C | 0% | 47.2hPa | 2.4V | 00:00:00 | 00:00:00 | 00:00:00 | |
| AA1-15 | 2026-08-31 12:22:14 | 54.92148 | 19.90241 | 269° | 13km/h | 1755m | 8m/s | -52.9°C | 0% | 47.3hPa | 2.4V | 00:00:00 | 00:00:00 | 00:00:00 | |
| AA1-15 | 2026-08-31 12:22:13 | 54.92144 | 19.90254 | 270° | 13km/h | 1736m | 8m/s | -52.8°C | 0% | 47.4hPa | 2.4V | 00:00:00 | 00:00:00 | 00:00:00 | |
| AA1-15 | 2026-08-31 12:22:11 | 54.92144 | 19.90260 | 269° | 15km/h | 1727m | 7.9m/s | -52.8°C | 0% | 47.5hPa | 2.4V | 00:00:00 | 00:00:00 | 00:00:00 | |
| AA1-15 | 2026-08-31 12:22:10 | 54.92139 | 19.90268 | 269° | 15km/h | 1706m | 8m/s | -52.7°C | 0% | 47.5hPa | 2.4V | 00:00:00 | 00:00:00 | 00:00:00 | |
| AA1-15 | 2026-08-31 12:22:09 | 54.92137 | 19.90272 | 270° | 13km/h | 1695m | 8m/s | -52.7°C | 0% | 47.5hPa | 2.4V | 00:00:00 | 00:00:00 | 00:00:00 | |
| AA1-15 | 2026-08-31 12:22:07 | 54.92131 | 19.90277 | 268° | 13km/h | 1673m | 8m/s | -52.6°C | 0% | 47.6hPa | 2.4V | 00:00:00 | 00:00:00 | 00:00:00 | |
| AA1-15 | 2026-08-31 12:22:06 | 54.92128 | 19.90283 | 270° | 15km/h | 1663m | 8.1m/s | -52.6°C | 0% | 47.7hPa | 2.4V | 00:00:00 | 00:00:00 | 00:00:00 | |
| AA1-15 | 2026-08-31 12:22:04 | 54.92121 | 19.90283 | 274° | 13km/h | 1651m | 8.3m/s | -52.6°C | 0% | 47.7hPa | 2.4V | 00:00:00 | 00:00:00 | 00:00:00 | |
| AA1-15 | 2026-08-31 12:22:03 | 54.92119 | 19.90285 | 284° | 13km/h | 1643m | 8.6m/s | -52.6°C | 0% | 47.8hPa | 2.4V | 00:00:00 | 00:00:00 | 00:00:00 | |
| AA1-15 | 2026-08-31 12:22:00 | 54.92118 | 19.90297 | 270° | 16km/h | 1623m | 8m/s | -52.5°C | 0% | 47.9hPa | 2.4V | 00:00:00 | 00:00:00 | 00:00:00 | |
| AA1-15 | 2026-08-31 12:21:57 | 54.92120 | 19.90318 | 269° | 13km/h | 1596m | 7.8m/s | -52.4°C | 0% | 48hPa | 2.4V | 00:00:00 | 00:00:00 | 00:00:00 | |
| AA1-15 | 2026-08-31 12:21:53 | 54.92136 | 19.90364 | 265° | 13km/h | 1577m | 9.1m/s | -52.4°C | 0% | 48.2hPa | 2.2V | 00:00:00 | 00:00:00 | 00:00:00 | |
| AA1-15 | 2026-08-31 12:21:52 | 54.92137 | 19.90373 | 245° | 22km/h | 1576m | 8.1m/s | -52.5°C | 0% | 48.2hPa | 2.2V | 00:00:00 | 00:00:00 | 00:00:00 | |
| AA1-15 | 2026-08-31 12:21:51 | 54.92135 | 19.90396 | 269° | 95km/h | 1567m | 8.1m/s | -52.4°C | 0% | 48.3hPa | 2.2V | 00:00:00 | 00:00:00 | 00:00:00 | |
| AA1-15 | 2026-08-31 12:21:49 | 54.92146 | 19.90485 | 253° | 99km/h | 1563m | 8m/s | -52.4°C | 0% | 48.4hPa | 2.2V | 00:00:00 | 00:00:00 | 00:00:00 | |
| AA1-15 | 2026-08-31 12:21:46 | 54.92194 | 19.90632 | 233° | 95km/h | 1525m | 7.9m/s | -52.4°C | 0% | 48.5hPa | 2.2V | 00:00:00 | 00:00:00 | 00:00:00 | |
| AA1-15 | 2026-08-31 12:21:44 | 54.92208 | 19.90664 | 227° | 97km/h | 1518m | 8.1m/s | -52.4°C | 0% | 48.6hPa | 2.2V | 00:00:00 | 00:00:00 | 00:00:00 | |
| AA1-15 | 2026-08-31 12:21:43 | 54.92225 | 19.90692 | 219° | 95km/h | 1510m | 8.1m/s | -52.4°C | 0% | 48.6hPa | 2.2V | 00:00:00 | 00:00:00 | 00:00:00 | |
| AA1-15 | 2026-08-31 12:21:41 | 54.92263 | 19.90735 | 207° | 91km/h | 1492m | 8.1m/s | -52.3°C | 0% | 48.7hPa | 2.2V | 00:00:00 | 00:00:00 | 00:00:00 | |
| AA1-15 | 2026-08-31 12:21:39 | 54.92327 | 19.90768 | 189° | 97km/h | 1465m | 8m/s | -52.3°C | 0% | 48.9hPa | 2.2V | 00:00:00 | 00:00:00 | 00:00:00 | |
| AA1-15 | 2026-08-31 12:21:37 | 54.92349 | 19.90771 | 182° | 100km/h | 1455m | 8m/s | -52.3°C | 0% | 48.9hPa | 2.2V | 00:00:00 | 00:00:00 | 00:00:00 | |
| AA1-15 | 2026-08-31 12:21:34 | 54.92415 | 19.90754 | 165° | 100km/h | 1428m | 7.9m/s | -52.3°C | 0% | 49hPa | 2.2V | 00:00:00 | 00:00:00 | 00:00:00 | |
| AA1-15 | 2026-08-31 12:21:32 | 54.92463 | 19.90724 | 151° | 93km/h | 1418m | 8.1m/s | -52.2°C | 0% | 49.1hPa | 2.2V | 00:00:00 | 00:00:00 | 00:00:00 | |
| AA1-15 | 2026-08-31 12:21:30 | 54.92505 | 19.90677 | 140° | 99km/h | 1405m | 8m/s | -52.2°C | 0% | 49.2hPa | 2.2V | 00:00:00 | 00:00:00 | 00:00:00 | |
| AA1-15 | 2026-08-31 12:21:29 | 54.92523 | 19.90648 | 131° | 95km/h | 1399m | 8m/s | -52.2°C | 0% | 49.2hPa | 2.2V | 00:00:00 | 00:00:00 | 00:00:00 | |
| AA1-15 | 2026-08-31 12:21:28 | 54.92553 | 19.90583 | 118° | 97km/h | 1388m | 8m/s | -52.1°C | 0% | 49.3hPa | 2.2V | 00:00:00 | 00:00:00 | 00:00:00 | |
| AA1-15 | 2026-08-31 12:21:26 | 54.92586 | 19.90466 | 105° | 97km/h | 1375m | 8m/s | -52.1°C | 0% | 49.4hPa | 2.2V | 00:00:00 | 00:00:00 | 00:00:00 | |
| AA1-15 | 2026-08-31 12:21:24 | 54.92591 | 19.90422 | 98° | 97km/h | 1370m | 7.9m/s | -52°C | 0% | 49.4hPa | 2.2V | 00:00:00 | 00:00:00 | 00:00:00 | |
| AA1-15 | 2026-08-31 12:21:22 | 54.92594 | 19.90378 | 94° | 95km/h | 1365m | 8m/s | -52°C | 0% | 49.5hPa | 2.2V | 00:00:00 | 00:00:00 | 00:00:00 | |
| AA1-15 | 2026-08-31 12:21:11 | 54.92455 | 19.90012 | 24° | 95km/h | 1361m | 8m/s | -51.8°C | 0% | 49.9hPa | 2.2V | 00:00:00 | 00:00:00 | 00:00:00 | |
| AA1-15 | 2026-08-31 12:21:10 | 54.92432 | 19.89997 | 19° | 95km/h | 1353m | 8.1m/s | -51.7°C | 0% | 50hPa | 2.2V | 00:00:00 | 00:00:00 | 00:00:00 | |
| AA1-15 | 2026-08-31 12:21:08 | 54.92385 | 19.89980 | 6° | 97km/h | 1334m | 7.9m/s | -51.6°C | 0% | 50.1hPa | 2.2V | 00:00:00 | 00:00:00 | 00:00:00 | |
| AA1-15 | 2026-08-31 12:21:06 | 54.92314 | 19.89979 | 360° | 100km/h | 1308m | 8m/s | -51.6°C | 0% | 50.2hPa | 2.2V | 00:00:00 | 00:00:00 | 00:00:00 | |
| AA1-15 | 2026-08-31 12:21:03 | 54.92240 | 19.89987 | 0° | 95km/h | 1281m | 8.2m/s | -51.5°C | 0% | 50.4hPa | 2.2V | 00:00:00 | 00:00:00 | 00:00:00 | |
| AA1-15 | 2026-08-31 12:21:00 | 54.92195 | 19.89990 | 0° | 93km/h | 1257m | 8.1m/s | -51.6°C | 0% | 50.4hPa | 2.2V | 00:00:00 | 00:00:00 | 00:00:00 | |
| AA1-15 | 2026-08-31 12:20:57 | 54.92121 | 19.89991 | 0° | 95km/h | 1223m | 8.1m/s | -51.6°C | 0% | 50.5hPa | 2.2V | 00:00:00 | 00:00:00 | 00:00:00 | |
| AA1-15 | 2026-08-31 12:20:55 | 54.92051 | 19.89992 | 0° | 100km/h | 1186m | 8m/s | -51.6°C | 0% | 50.6hPa | 2.2V | 00:00:00 | 00:00:00 | 00:00:00 | |
| AA1-15 | 2026-08-31 12:20:53 | 54.91979 | 19.89993 | 0° | 95km/h | 1156m | 8.1m/s | -51.5°C | 0% | 50.8hPa | 2.2V | 00:00:00 | 00:00:00 | 00:00:00 | |
| AA1-15 | 2026-08-31 12:20:51 | 54.91957 | 19.89994 | 0° | 100km/h | 1147m | 8.2m/s | -51.5°C | 0% | 50.8hPa | 2.2V | 00:00:00 | 00:00:00 | 00:00:00 | |
| AA1-15 | 2026-08-31 12:20:49 | 54.91938 | 19.89997 | 0° | 95km/h | 1137m | 8.3m/s | -51.5°C | 0% | 50.9hPa | 2.2V | 00:00:00 | 00:00:00 | 00:00:00 | |
| AA1-15 | 2026-08-31 12:20:47 | 54.91895 | 19.89986 | 24° | 95km/h | 1116m | 8.1m/s | -51.4°C | 0% | 51hPa | 2.2V | 00:00:00 | 00:00:00 | 00:00:00 | |
| AA1-15 | 2026-08-31 12:20:46 | 54.91874 | 19.89963 | 41° | 97km/h | 1106m | 7.9m/s | -51.5°C | 0% | 51hPa | 2.2V | 00:00:00 | 00:00:00 | 00:00:00 | |
| AA1-15 | 2026-08-31 12:20:44 | 54.91867 | 19.89771 | 134° | 95km/h | 1063m | 8.1m/s | -51.5°C | 0% | 51.2hPa | 2.2V | 00:00:00 | 00:00:00 | 00:00:00 | |
| AA1-15 | 2026-08-31 12:20:42 | 54.91908 | 19.89737 | 171° | 97km/h | 1033m | 8.1m/s | -51.5°C | 0% | 51.3hPa | 2.2V | 00:00:00 | 00:00:00 | 00:00:00 | |
| AA1-15 | 2026-08-31 12:20:39 | 54.91929 | 19.89738 | 191° | 91km/h | 1019m | 8.1m/s | -51.5°C | 0% | 51.4hPa | 2.2V | 00:00:00 | 00:00:00 | 00:00:00 | |
| AA1-15 | 2026-08-31 12:20:37 | 54.91949 | 19.89751 | 207° | 99km/h | 1006m | 8.2m/s | -51.5°C | 0% | 51.4hPa | 2.2V | 00:00:00 | 00:00:00 | 00:00:00 | |
| AA1-15 | 2026-08-31 12:20:36 | 54.91970 | 19.89776 | 224° | 95km/h | 999m | 8.2m/s | -51.5°C | 0% | 51.4hPa | 2.2V | 00:00:00 | 00:00:00 | 00:00:00 | |
| AA1-15 | 2026-08-31 12:20:34 | 54.91993 | 19.89851 | 261° | 115km/h | 988m | 9.7m/s | -51.4°C | 0% | 51.5hPa | 2.2V | 00:00:00 | 00:00:00 | 00:00:00 | |
| AA1-15 | 2026-08-31 12:20:33 | 54.91993 | 19.89894 | 270° | 99km/h | 982m | 8m/s | -51.5°C | 0% | 51.5hPa | 2.2V | 00:00:00 | 00:00:00 | 00:00:00 | |
| AA1-15 | 2026-08-31 12:20:31 | 54.92002 | 19.90076 | 270° | 97km/h | 975m | 8m/s | -51.5°C | 0% | 51.7hPa | 2.2V | 00:00:00 | 00:00:00 | 00:00:00 | |
| AA1-15 | 2026-08-31 12:20:29 | 54.92004 | 19.90121 | 270° | 97km/h | 971m | 8m/s | -51.5°C | 0% | 51.8hPa | 2.2V | 00:00:00 | 00:00:00 | 00:00:00 | |
| AA1-15 | 2026-08-31 12:20:26 | 54.92007 | 19.90210 | 270° | 97km/h | 966m | 8m/s | -51.5°C | 0% | 51.9hPa | 2.2V | 00:00:00 | 00:00:00 | 00:00:00 | |
| AA1-15 | 2026-08-31 12:20:25 | 54.92008 | 19.90254 | 270° | 95km/h | 963m | 8m/s | -51.5°C | 0% | 51.9hPa | 2.2V | 00:00:00 | 00:00:00 | 00:00:00 | |
| AA1-15 | 2026-08-31 12:20:24 | 54.92009 | 19.90297 | 270° | 95km/h | 959m | 8m/s | -51.6°C | 0% | 51.9hPa | 2.2V | 00:00:00 | 00:00:00 | 00:00:00 | |
| AA1-15 | 2026-08-31 12:20:22 | 54.92015 | 19.90390 | 270° | 95km/h | 961m | 8m/s | -51.6°C | 0% | 52hPa | 2.2V | 00:00:00 | 00:00:00 | 00:00:00 | |
| AA1-15 | 2026-08-31 12:20:17 | 54.92058 | 19.90654 | 257° | 91km/h | 1003m | 8m/s | -51.7°C | 0% | 52.2hPa | 2.2V | 00:00:00 | 00:00:00 | 00:00:00 | |
| AA1-15 | 2026-08-31 12:20:14 | 54.92228 | 19.90985 | 229° | 95km/h | 1211m | 8.2m/s | -51.7°C | 0% | 52.4hPa | 2.2V | 00:00:00 | 00:00:00 | 00:00:00 | |
| AA1-15 | 2026-08-31 12:20:13 | 54.92460 | 19.91400 | 218° | 93km/h | 1471m | 7.7m/s | -51.7°C | 0% | 52.5hPa | 2.2V | 00:00:00 | 00:00:00 | 00:00:00 | |
| AA1-15 | 2026-08-31 12:20:12 | 54.92524 | 19.91507 | 205° | 93km/h | 1827m | 5.3m/s | -51.7°C | 0% | 52.5hPa | 2.2V | 00:00:00 | 00:00:00 | 00:00:00 | |
| AA1-15 | 2026-08-31 12:20:01 | 54.88400 | 20.04037 | 1° | 13km/h | 159087m | 8.7m/s | -51.8°C | 0% | 53hPa | 2.2V | 00:00:00 | 00:00:00 | 00:00:00 | |
| AA1-15 | 2026-08-31 12:19:48 | 54.88314 | 20.04018 | 0° | 16km/h | 2782m | 8m/s | -51.6°C | 0% | 53.6hPa | 2.2V | 00:00:00 | 00:00:00 | 00:00:00 | |
| AA1-15 | 2026-08-31 12:19:38 | 54.88305 | 20.04040 | 0° | 9km/h | 2700m | 8.1m/s | -51.7°C | 0% | 54hPa | 2.2V | 00:00:00 | 00:00:00 | 00:00:00 | |
| AA1-15 | 2026-08-31 12:19:23 | 54.88244 | 20.04044 | 1° | 13km/h | 159087m | 8m/s | -51.5°C | 0% | 54.7hPa | 2.2V | 00:00:00 | 00:00:00 | 00:00:00 | |
| AA1-15 | 2026-08-31 12:19:12 | 54.88195 | 20.04043 | 0° | 16km/h | 2542m | 8.2m/s | -51.3°C | 0% | 55.2hPa | 2.2V | 00:00:00 | 00:00:00 | 00:00:00 | |
| AA1-15 | 2026-08-31 12:19:01 | 54.88175 | 20.04049 | 0° | 16km/h | 2439m | 8m/s | -51.4°C | 0% | 55.7hPa | 2.2V | 00:00:00 | 00:00:00 | 00:00:00 | |
| AA1-15 | 2026-08-31 12:18:47 | 54.88116 | 20.04047 | 360° | 16km/h | 2313m | 7.9m/s | -51.1°C | 0% | 56.3hPa | 2.2V | 00:00:00 | 00:00:00 | 00:00:00 | |
| AA1-15 | 2026-08-31 12:18:37 | 54.88073 | 20.04035 | 1° | 11km/h | 2227m | 7.9m/s | -50.8°C | 0% | 56.8hPa | 2.2V | 00:00:00 | 00:00:00 | 00:00:00 | |
| AA1-15 | 2026-08-31 12:18:25 | 54.88003 | 20.04039 | 334° | 5km/h | 2174m | 7.4m/s | -50.4°C | 0% | 57.4hPa | 2.2V | 00:00:00 | 00:00:00 | 00:00:00 | |
| AA1-15 | 2026-08-31 12:18:15 | 54.87997 | 20.04059 | 1° | 18km/h | 2103m | 8.1m/s | -50.1°C | 0% | 57.8hPa | 2.2V | 00:00:00 | 00:00:00 | 00:00:00 | |
| AA1-15 | 2026-08-31 12:18:05 | 54.87969 | 20.04077 | 21° | 4km/h | 1995m | 11.1m/s | -50.1°C | 0% | 58.3hPa | 2.2V | 00:00:00 | 00:00:00 | 00:00:00 | |
| AA1-15 | 2026-08-31 12:18:03 | 54.87971 | 20.04082 | 0° | 16km/h | 1983m | 8m/s | -50.2°C | 0% | 58.4hPa | 2.2V | 00:00:00 | 00:00:00 | 00:00:00 | |
| AA1-15 | 2026-08-31 12:18:01 | 54.87967 | 20.04085 | 359° | 15km/h | 1954m | 7.5m/s | -50.2°C | 0% | 58.6hPa | 2.2V | 00:00:00 | 00:00:00 | 00:00:00 | |
| AA1-15 | 2026-08-31 12:18:01 | 54.87964 | 20.04085 | 0° | 16km/h | 1946m | 8.1m/s | -50.2°C | 0% | 58.6hPa | 2.2V | 00:00:00 | 00:00:00 | 00:00:00 | |
| AA1-15 | 2026-08-31 12:17:58 | 54.87960 | 20.04086 | 0° | 16km/h | 1938m | 8.1m/s | -50.2°C | 0% | 58.7hPa | 2.2V | 00:00:00 | 00:00:00 | 00:00:00 | |
| AA1-15 | 2026-08-31 12:17:56 | 54.87956 | 20.04086 | 360° | 16km/h | 1929m | 8.1m/s | -50.2°C | 0% | 58.7hPa | 2.2V | 00:00:00 | 00:00:00 | 00:00:00 | |
| AA1-15 | 2026-08-31 12:17:55 | 54.87953 | 20.04086 | 2° | 11km/h | 1921m | 7.9m/s | -50.3°C | 0% | 58.8hPa | 2.2V | 00:00:00 | 00:00:00 | 00:00:00 | |
| AA1-15 | 2026-08-31 12:17:53 | 54.87949 | 20.04086 | 5° | 15km/h | 1905m | 8m/s | -50.3°C | 0% | 58.9hPa | 2.2V | 00:00:00 | 00:00:00 | 00:00:00 | |
| AA1-15 | 2026-08-31 12:17:52 | 54.87937 | 20.04086 | 1° | 95km/h | 1897m | 8.1m/s | -50.3°C | 0% | 58.9hPa | 2.2V | 00:00:00 | 00:00:00 | 00:00:00 | |
| AA1-15 | 2026-08-31 12:17:49 | 54.87865 | 20.04093 | 355° | 102km/h | 1873m | 8m/s | -50.3°C | 0% | 59.1hPa | 2.2V | 00:00:00 | 00:00:00 | 00:00:00 | |
| AA1-15 | 2026-08-31 12:17:46 | 54.87796 | 20.04113 | 349° | 97km/h | 1850m | 7.9m/s | -50.2°C | 0% | 59.2hPa | 2.2V | 00:00:00 | 00:00:00 | 00:00:00 | |
| AA1-15 | 2026-08-31 12:17:45 | 54.87773 | 20.04123 | 347° | 91km/h | 1842m | 8m/s | -50.2°C | 0% | 59.3hPa | 2.2V | 00:00:00 | 00:00:00 | 00:00:00 | |
| AA1-15 | 2026-08-31 12:17:44 | 54.87751 | 20.04133 | 346° | 99km/h | 1835m | 7.9m/s | -50.2°C | 0% | 59.3hPa | 2.2V | 00:00:00 | 00:00:00 | 00:00:00 | |
| AA1-15 | 2026-08-31 12:17:42 | 54.87708 | 20.04158 | 343° | 95km/h | 1821m | 8m/s | -50.1°C | 0% | 59.4hPa | 2.2V | 00:00:00 | 00:00:00 | 00:00:00 | |
| AA1-15 | 2026-08-31 12:17:41 | 54.87686 | 20.04173 | 343° | 100km/h | 1815m | 8.1m/s | -50.2°C | 0% | 59.4hPa | 2.2V | 00:00:00 | 00:00:00 | 00:00:00 | |
| AA1-15 | 2026-08-31 12:17:40 | 54.87642 | 20.04205 | 340° | 99km/h | 1802m | 8.1m/s | -50.2°C | 0% | 59.6hPa | 2.2V | 00:00:00 | 00:00:00 | 00:00:00 | |
| AA1-15 | 2026-08-31 12:17:38 | 54.87621 | 20.04223 | 337° | 100km/h | 1795m | 8m/s | -50.2°C | 0% | 59.6hPa | 2.2V | 00:00:00 | 00:00:00 | 00:00:00 | |
| AA1-15 | 2026-08-31 12:17:35 | 54.87559 | 20.04302 | 334° | 99km/h | 1791m | 8.3m/s | -50.3°C | 0% | 59.8hPa | 2.2V | 00:00:00 | 00:00:00 | 00:00:00 | |
| AA1-15 | 2026-08-31 12:17:34 | 54.87537 | 20.04313 | 331° | 93km/h | 1782m | 8.2m/s | -50.3°C | 0% | 59.8hPa | 2.2V | 00:00:00 | 00:00:00 | 00:00:00 | |
| AA1-15 | 2026-08-31 12:17:33 | 54.87516 | 20.04325 | 330° | 95km/h | 1774m | 8.1m/s | -50.4°C | 0% | 59.8hPa | 2.2V | 00:00:00 | 00:00:00 | 00:00:00 | |
| AA1-15 | 2026-08-31 12:17:32 | 54.87429 | 20.04439 | 322° | 95km/h | 1734m | 8m/s | -50.4°C | 0% | 60.1hPa | 2.2V | 00:00:00 | 00:00:00 | 00:00:00 | |
| AA1-15 | 2026-08-31 12:17:30 | 54.87413 | 20.04464 | 319° | 93km/h | 1725m | 7.9m/s | -50.5°C | 0% | 60.1hPa | 2.2V | 00:00:00 | 00:00:00 | 00:00:00 | |
| AA1-15 | 2026-08-31 12:17:27 | 54.87398 | 20.04491 | 318° | 95km/h | 1717m | 8.1m/s | -50.4°C | 0% | 60.1hPa | 2.2V | 00:00:00 | 00:00:00 | 00:00:00 | |
| AA1-15 | 2026-08-31 12:17:26 | 54.87383 | 20.04518 | 315° | 93km/h | 1708m | 8.1m/s | -50.4°C | 0% | 60.2hPa | 2.2V | 00:00:00 | 00:00:00 | 00:00:00 | |
| AA1-15 | 2026-08-31 12:17:24 | 54.87369 | 20.04545 | 316° | 93km/h | 1699m | 8m/s | -50.5°C | 0% | 60.3hPa | 2.2V | 00:00:00 | 00:00:00 | 00:00:00 | |
| AA1-15 | 2026-08-31 12:17:22 | 54.87341 | 20.04603 | 314° | 99km/h | 1681m | 8.1m/s | -50.5°C | 0% | 60.4hPa | 2.2V | 00:00:00 | 00:00:00 | 00:00:00 | |
| AA1-15 | 2026-08-31 12:17:20 | 54.87310 | 20.04659 | 312° | 97km/h | 1664m | 8.3m/s | -50.5°C | 0% | 60.5hPa | 2.2V | 00:00:00 | 00:00:00 | 00:00:00 | |
| AA1-15 | 2026-08-31 12:17:18 | 54.87257 | 20.04692 | 306° | 95km/h | 1653m | 8m/s | -50.6°C | 0% | 60.5hPa | 2.2V | 00:00:00 | 00:00:00 | 00:00:00 | |
| AA1-15 | 2026-08-31 12:17:17 | 54.87234 | 20.04717 | 305° | 99km/h | 1646m | 7.9m/s | -50.6°C | 0% | 60.6hPa | 2.2V | 00:00:00 | 00:00:00 | 00:00:00 | |
| AA1-15 | 2026-08-31 12:17:15 | 54.87199 | 20.04785 | 303° | 97km/h | 1631m | 8.1m/s | -50.8°C | 0% | 60.7hPa | 2.2V | 00:00:00 | 00:00:00 | 00:00:00 | |
| AA1-15 | 2026-08-31 12:17:13 | 54.87167 | 20.04861 | 300° | 99km/h | 1621m | 8m/s | -50.8°C | 0% | 60.8hPa | 2.2V | 00:00:00 | 00:00:00 | 00:00:00 | |
| AA1-15 | 2026-08-31 12:17:11 | 54.87141 | 20.04939 | 294° | 95km/h | 1611m | 8m/s | -50.9°C | 0% | 60.9hPa | 2.2V | 00:00:00 | 00:00:00 | 00:00:00 | |
| AA1-15 | 2026-08-31 12:17:10 | 54.87127 | 20.04984 | 294° | 99km/h | 1606m | 8.1m/s | -50.9°C | 0% | 61hPa | 2.2V | 00:00:00 | 00:00:00 | 00:00:00 | |
| AA1-15 | 2026-08-31 12:17:08 | 54.87102 | 20.05079 | 289° | 93km/h | 1595m | 8m/s | -50.9°C | 0% | 61hPa | 2.2V | 00:00:00 | 00:00:00 | 00:00:00 | |
| AA1-15 | 2026-08-31 12:17:06 | 54.87085 | 20.05160 | 287° | 95km/h | 1578m | 8.2m/s | -51.1°C | 0% | 61.1hPa | 2.2V | 00:00:00 | 00:00:00 | 00:00:00 | |
| AA1-15 | 2026-08-31 12:17:05 | 54.87075 | 20.05197 | 288° | 95km/h | 1568m | 8.2m/s | -51.2°C | 0% | 61.2hPa | 2.2V | 00:00:00 | 00:00:00 | 00:00:00 | |
| AA1-15 | 2026-08-31 12:17:03 | 54.87057 | 20.05275 | 282° | 95km/h | 1549m | 8.1m/s | -51.4°C | 0% | 61.3hPa | 2.2V | 00:00:00 | 00:00:00 | 00:00:00 | |
| AA1-15 | 2026-08-31 12:17:02 | 54.87051 | 20.05315 | 279° | 95km/h | 1540m | 8m/s | -51.4°C | 0% | 61.3hPa | 2.2V | 00:00:00 | 00:00:00 | 00:00:00 | |
| AA1-15 | 2026-08-31 12:16:59 | 54.87030 | 20.05476 | 275° | 97km/h | 1504m | 8m/s | -51.3°C | 0% | 61.5hPa | 2.2V | 00:00:00 | 00:00:00 | 00:00:00 | |
| AA1-15 | 2026-08-31 12:16:58 | 54.87026 | 20.05517 | 276° | 97km/h | 1494m | 8.1m/s | -51.4°C | 0% | 61.6hPa | 2.2V | 00:00:00 | 00:00:00 | 00:00:00 | |
| AA1-15 | 2026-08-31 12:16:57 | 54.87021 | 20.05558 | 273° | 95km/h | 1484m | 7.9m/s | -51.3°C | 0% | 61.6hPa | 2.2V | 00:00:00 | 00:00:00 | 00:00:00 | |
| AA1-15 | 2026-08-31 12:16:55 | 54.87018 | 20.05598 | 270° | 95km/h | 1473m | 8m/s | -51.3°C | 0% | 61.6hPa | 2.2V | 00:00:00 | 00:00:00 | 00:00:00 | |
| AA1-15 | 2026-08-31 12:16:53 | 54.87014 | 20.05682 | 268° | 95km/h | 1453m | 8.1m/s | -51.3°C | 0% | 61.8hPa | 2.2V | 00:00:00 | 00:00:00 | 00:00:00 | |
| AA1-15 | 2026-08-31 12:16:51 | 54.87014 | 20.05764 | 263° | 97km/h | 1433m | 8.1m/s | -51.2°C | 0% | 61.9hPa | 2.2V | 00:00:00 | 00:00:00 | 00:00:00 | |
| AA1-15 | 2026-08-31 12:16:49 | 54.87020 | 20.05847 | 261° | 97km/h | 1417m | 8m/s | -51.2°C | 0% | 62hPa | 2.2V | 00:00:00 | 00:00:00 | 00:00:00 | |
| AA1-15 | 2026-08-31 12:16:48 | 54.87024 | 20.05890 | 262° | 97km/h | 1410m | 8.2m/s | -51.2°C | 0% | 62hPa | 2.2V | 00:00:00 | 00:00:00 | 00:00:00 | |
| AA1-15 | 2026-08-31 12:16:46 | 54.87036 | 20.05973 | 256° | 97km/h | 1398m | 8.1m/s | -51.2°C | 0% | 62.1hPa | 2.2V | 00:00:00 | 00:00:00 | 00:00:00 | |
| AA1-15 | 2026-08-31 12:16:45 | 54.87044 | 20.06013 | 252° | 95km/h | 1391m | 8m/s | -51.1°C | 0% | 62.2hPa | 2.2V | 00:00:00 | 00:00:00 | 00:00:00 | |
| AA1-15 | 2026-08-31 12:16:44 | 54.87053 | 20.06052 | 250° | 97km/h | 1384m | 8.3m/s | -51.2°C | 0% | 62.2hPa | 2.2V | 00:00:00 | 00:00:00 | 00:00:00 | |
| AA1-15 | 2026-08-31 12:16:43 | 54.87058 | 20.06091 | 251° | 97km/h | 1373m | 8.3m/s | -51.2°C | 0% | 62.3hPa | 2.2V | 00:00:00 | 00:00:00 | 00:00:00 | |
| AA1-15 | 2026-08-31 12:16:41 | 54.87079 | 20.06172 | 248° | 95km/h | 1363m | 8m/s | -51.3°C | 0% | 62.4hPa | 2.2V | 00:00:00 | 00:00:00 | 00:00:00 | |
| AA1-15 | 2026-08-31 12:16:39 | 54.87100 | 20.06248 | 246° | 95km/h | 1350m | 8.1m/s | -51.4°C | 0% | 62.5hPa | 2.2V | 00:00:00 | 00:00:00 | 00:00:00 | |
| AA1-15 | 2026-08-31 12:16:38 | 54.87112 | 20.06286 | 244° | 97km/h | 1342m | 8.1m/s | -51.4°C | 0% | 62.6hPa | 2.2V | 00:00:00 | 00:00:00 | 00:00:00 | |
| AA1-15 | 2026-08-31 12:16:37 | 54.87125 | 20.06323 | 240° | 97km/h | 1334m | 8m/s | -51.4°C | 0% | 62.6hPa | 2.2V | 00:00:00 | 00:00:00 | 00:00:00 | |
| AA1-15 | 2026-08-31 12:16:35 | 54.87164 | 20.06430 | 238° | 93km/h | 1309m | 8m/s | -51.4°C | 0% | 62.8hPa | 2.2V | 00:00:00 | 00:00:00 | 00:00:00 | |
| AA1-15 | 2026-08-31 12:16:33 | 54.87178 | 20.06464 | 234° | 95km/h | 1301m | 8m/s | -51.5°C | 0% | 62.8hPa | 2.2V | 00:00:00 | 00:00:00 | 00:00:00 | |
| AA1-15 | 2026-08-31 12:16:32 | 54.87194 | 20.06498 | 232° | 99km/h | 1293m | 7.9m/s | -51.6°C | 0% | 62.9hPa | 2.2V | 00:00:00 | 00:00:00 | 00:00:00 | |
| AA1-15 | 2026-08-31 12:16:31 | 54.87210 | 20.06531 | 234° | 91km/h | 1285m | 8.1m/s | -51.6°C | 0% | 62.9hPa | 2.2V | 00:00:00 | 00:00:00 | 00:00:00 | |
| AA1-15 | 2026-08-31 12:16:30 | 54.87226 | 20.06564 | 233° | 95km/h | 1277m | 8.1m/s | -51.6°C | 0% | 62.9hPa | 2.2V | 00:00:00 | 00:00:00 | 00:00:00 | |
| AA1-15 | 2026-08-31 12:16:28 | 54.87260 | 20.06627 | 226° | 99km/h | 1259m | 8m/s | -51.6°C | 0% | 63.1hPa | 2.2V | 00:00:00 | 00:00:00 | 00:00:00 | |
| AA1-15 | 2026-08-31 12:16:27 | 54.87278 | 20.06657 | 225° | 95km/h | 1251m | 8m/s | -51.6°C | 0% | 63.1hPa | 2.2V | 00:00:00 | 00:00:00 | 00:00:00 | |
| AA1-15 | 2026-08-31 12:16:23 | 54.87365 | 20.06799 | 219° | 93km/h | 1213m | 8.1m/s | -51.3°C | 0% | 63.4hPa | 2.2V | 00:00:00 | 00:00:00 | 00:00:00 | |
| AA1-15 | 2026-08-31 12:16:21 | 54.87384 | 20.06825 | 219° | 97km/h | 1205m | 8m/s | -51.3°C | 0% | 63.5hPa | 2.2V | 00:00:00 | 00:00:00 | 00:00:00 | |
| AA1-15 | 2026-08-31 12:16:20 | 54.87403 | 20.06850 | 215° | 97km/h | 1198m | 8m/s | -51.2°C | 0% | 63.5hPa | 2.2V | 00:00:00 | 00:00:00 | 00:00:00 | |
| AA1-15 | 2026-08-31 12:16:18 | 54.87443 | 20.06897 | 211° | 99km/h | 1183m | 8m/s | -51.1°C | 0% | 63.6hPa | 2.2V | 00:00:00 | 00:00:00 | 00:00:00 | |
| AA1-15 | 2026-08-31 12:16:17 | 54.87463 | 20.06919 | 212° | 97km/h | 1175m | 8m/s | -51.1°C | 0% | 63.6hPa | 2.2V | 00:00:00 | 00:00:00 | 00:00:00 | |
| AA1-15 | 2026-08-31 12:16:15 | 54.87545 | 20.06997 | 204° | 95km/h | 1144m | 7.9m/s | -50.9°C | 0% | 63.9hPa | 2.2V | 00:00:00 | 00:00:00 | 00:00:00 | |
| AA1-15 | 2026-08-31 12:16:13 | 54.87562 | 20.07016 | 202° | 99km/h | 1136m | 8m/s | -50.9°C | 0% | 63.9hPa | 2.2V | 00:00:00 | 00:00:00 | 00:00:00 | |
| AA1-15 | 2026-08-31 12:16:11 | 54.87582 | 20.07034 | 200° | 97km/h | 1127m | 8.2m/s | -50.9°C | 0% | 63.9hPa | 2.2V | 00:00:00 | 00:00:00 | 00:00:00 | |
| AA1-15 | 2026-08-31 12:16:09 | 54.87628 | 20.07069 | 198° | 99km/h | 1113m | 7.8m/s | -50.7°C | 0% | 64hPa | 2.2V | 00:00:00 | 00:00:00 | 00:00:00 | |
| AA1-15 | 2026-08-31 12:16:07 | 54.87662 | 20.07113 | 195° | 100km/h | 1088m | 8.1m/s | -50.8°C | 0% | 64.1hPa | 2.2V | 00:00:00 | 00:00:00 | 00:00:00 | |
| AA1-15 | 2026-08-31 12:16:06 | 54.87687 | 20.07127 | 192° | 99km/h | 1080m | 8.1m/s | -50.7°C | 0% | 64.2hPa | 2.2V | 00:00:00 | 00:00:00 | 00:00:00 | |
| AA1-15 | 2026-08-31 12:16:04 | 54.87788 | 20.07162 | 187° | 95km/h | 1055m | 8.1m/s | -50.6°C | 0% | 64.4hPa | 2.2V | 00:00:00 | 00:00:00 | 00:00:00 | |
| AA1-15 | 2026-08-31 12:16:02 | 54.87816 | 20.07170 | 186° | 95km/h | 1048m | 8m/s | -50.6°C | 0% | 64.4hPa | 2.2V | 00:00:00 | 00:00:00 | 00:00:00 | |
| AA1-15 | 2026-08-31 12:16:00 | 54.87843 | 20.07179 | 184° | 95km/h | 1039m | 8m/s | -50.5°C | 0% | 64.5hPa | 2.2V | 00:00:00 | 00:00:00 | 00:00:00 | |
| AA1-15 | 2026-08-31 12:15:58 | 54.87890 | 20.07210 | 177° | 99km/h | 1011m | 5.6m/s | -50.5°C | 0% | 64.6hPa | 2.2V | 00:00:00 | 00:00:00 | 00:00:00 | |
| AA1-15 | 2026-08-31 12:15:57 | 54.87924 | 20.07199 | 177° | 100km/h | 1006m | 4.4m/s | -50.5°C | 0% | 64.7hPa | 2.2V | 00:00:00 | 00:00:00 | 00:00:00 | |
| AA1-15 | 2026-08-31 12:15:55 | 54.87976 | 20.07164 | 176° | 95km/h | 1003m | 8m/s | -50.6°C | 0% | 64.8hPa | 2.2V | 00:00:00 | 00:00:00 | 00:00:00 | |
| AA1-15 | 2026-08-31 12:15:53 | 54.88030 | 20.07158 | 174° | 100km/h | 984m | 8.1m/s | -50.5°C | 0% | 64.9hPa | 2.2V | 00:00:00 | 00:00:00 | 00:00:00 | |
| AA1-15 | 2026-08-31 12:15:52 | 54.88056 | 20.07152 | 170° | 97km/h | 974m | 8m/s | -50.5°C | 0% | 65hPa | 2.2V | 00:00:00 | 00:00:00 | 00:00:00 | |
| AA1-15 | 2026-08-31 12:15:51 | 54.88079 | 20.07144 | 171° | 97km/h | 965m | 8.1m/s | -50.5°C | 0% | 65hPa | 2.2V | 00:00:00 | 00:00:00 | 00:00:00 | |
| AA1-15 | 2026-08-31 12:15:49 | 54.88129 | 20.07127 | 166° | 93km/h | 947m | 8.2m/s | -50.5°C | 0% | 65.1hPa | 2.2V | 00:00:00 | 00:00:00 | 00:00:00 | |
| AA1-15 | 2026-08-31 12:15:48 | 54.88153 | 20.07119 | 165° | 93km/h | 939m | 8.1m/s | -50.5°C | 0% | 65.1hPa | 2.2V | 00:00:00 | 00:00:00 | 00:00:00 | |
| AA1-15 | 2026-08-31 12:15:47 | 54.88175 | 20.07107 | 163° | 93km/h | 931m | 8m/s | -50.4°C | 0% | 65.2hPa | 2.2V | 00:00:00 | 00:00:00 | 00:00:00 | |
| AA1-15 | 2026-08-31 12:15:45 | 54.88222 | 20.07083 | 161° | 97km/h | 917m | 8m/s | -50.4°C | 0% | 65.3hPa | 2.2V | 00:00:00 | 00:00:00 | 00:00:00 | |
| AA1-15 | 2026-08-31 12:15:43 | 54.88269 | 20.07054 | 155° | 95km/h | 903m | 8m/s | -50.4°C | 0% | 65.4hPa | 2.2V | 00:00:00 | 00:00:00 | 00:00:00 | |
| AA1-15 | 2026-08-31 12:15:42 | 54.88290 | 20.07035 | 155° | 97km/h | 894m | 8.1m/s | -50.3°C | 0% | 65.5hPa | 2.2V | 00:00:00 | 00:00:00 | 00:00:00 | |
| AA1-15 | 2026-08-31 12:15:39 | 54.88356 | 20.06974 | 150° | 97km/h | 869m | 8m/s | -50.4°C | 0% | 65.6hPa | 2.2V | 00:00:00 | 00:00:00 | 00:00:00 | |
| AA1-15 | 2026-08-31 12:15:37 | 54.88399 | 20.06930 | 146° | 95km/h | 849m | 8m/s | -50.4°C | 0% | 65.7hPa | 2.2V | 00:00:00 | 00:00:00 | 00:00:00 | |
| AA1-15 | 2026-08-31 12:15:35 | 54.88441 | 20.06883 | 146° | 97km/h | 827m | 8.1m/s | -50.4°C | 0% | 65.8hPa | 2.2V | 00:00:00 | 00:00:00 | 00:00:00 | |
| AA1-15 | 2026-08-31 12:15:34 | 54.88462 | 20.06858 | 141° | 95km/h | 817m | 8m/s | -50.4°C | 0% | 65.9hPa | 2.2V | 00:00:00 | 00:00:00 | 00:00:00 | |
| AA1-15 | 2026-08-31 12:15:33 | 54.88481 | 20.06829 | 140° | 99km/h | 807m | 8m/s | -50.4°C | 0% | 65.9hPa | 2.2V | 00:00:00 | 00:00:00 | 00:00:00 | |
| AA1-15 | 2026-08-31 12:15:31 | 54.88518 | 20.06772 | 138° | 95km/h | 788m | 8m/s | -50.3°C | 0% | 66.1hPa | 2.2V | 00:00:00 | 00:00:00 | 00:00:00 | |
| AA1-15 | 2026-08-31 12:15:30 | 54.88552 | 20.06717 | 134° | 95km/h | 765m | 8m/s | -50.4°C | 0% | 66.2hPa | 2.2V | 00:00:00 | 00:00:00 | 00:00:00 | |
| AA1-15 | 2026-08-31 12:15:28 | 54.88568 | 20.06685 | 134° | 99km/h | 756m | 8m/s | -50.5°C | 0% | 66.2hPa | 2.2V | 00:00:00 | 00:00:00 | 00:00:00 | |
| AA1-15 | 2026-08-31 12:15:27 | 54.88584 | 20.06651 | 131° | 97km/h | 746m | 8m/s | -50.7°C | 0% | 66.3hPa | 2.2V | 00:00:00 | 00:00:00 | 00:00:00 | |
| AA1-15 | 2026-08-31 12:15:24 | 54.88626 | 20.06549 | 129° | 95km/h | 715m | 8.2m/s | -51°C | 0% | 66.5hPa | 2.2V | 00:00:00 | 00:00:00 | 00:00:00 | |
| AA1-15 | 2026-08-31 12:15:23 | 54.88638 | 20.06514 | 126° | 95km/h | 706m | 8.1m/s | -51.1°C | 0% | 66.5hPa | 2.2V | 00:00:00 | 00:00:00 | 00:00:00 | |
| AA1-15 | 2026-08-31 12:15:21 | 54.88672 | 20.06408 | 119° | 93km/h | 686m | 8.2m/s | -51.1°C | 0% | 66.7hPa | 2.2V | 00:00:00 | 00:00:00 | 00:00:00 | |
| AA1-15 | 2026-08-31 12:15:20 | 54.88719 | 20.06256 | 118° | 97km/h | 653m | 8m/s | -51.1°C | 0% | 66.9hPa | 2.2V | 00:00:00 | 00:00:00 | 00:00:00 | |
| AA1-15 | 2026-08-31 12:15:12 | 54.88754 | 20.06097 | 110° | 97km/h | 615m | 8m/s | -51.1°C | 0% | 67.1hPa | 2.2V | 00:00:00 | 00:00:00 | 00:00:00 | |
| AA1-15 | 2026-08-31 12:15:09 | 54.88774 | 20.05973 | 104° | 97km/h | 583m | 8m/s | -51.1°C | 0% | 67.2hPa | 2.2V | 00:00:00 | 00:00:00 | 00:00:00 | |
| AA1-15 | 2026-08-31 12:15:07 | 54.88793 | 20.05851 | 100° | 93km/h | 554m | 8m/s | -51.1°C | 0% | 67.4hPa | 2.2V | 00:00:00 | 00:00:00 | 00:00:00 | |
| AA1-15 | 2026-08-31 12:15:05 | 54.88797 | 20.05810 | 97° | 97km/h | 543m | 8.1m/s | -51.2°C | 0% | 67.5hPa | 2.2V | 00:00:00 | 00:00:00 | 00:00:00 | |
| AA1-15 | 2026-08-31 12:15:03 | 54.88803 | 20.05723 | 93° | 97km/h | 523m | 9m/s | -51.2°C | 0% | 67.6hPa | 2.2V | 00:00:00 | 00:00:00 | 00:00:00 | |
| AA1-15 | 2026-08-31 12:15:00 | 54.88802 | 20.05592 | 90° | 95km/h | 489m | 8m/s | -51.3°C | 0% | 67.7hPa | 2.2V | 00:00:00 | 00:00:00 | 00:00:00 | |
| AA1-15 | 2026-08-31 12:14:59 | 54.88806 | 20.05551 | 88° | 95km/h | 475m | 8m/s | -51.2°C | 0% | 67.8hPa | 2.2V | 00:00:00 | 00:00:00 | 00:00:00 | |
| AA1-15 | 2026-08-31 12:14:58 | 54.88806 | 20.05512 | 85° | 99km/h | 457m | 8.1m/s | -51.3°C | 0% | 67.9hPa | 2.2V | 00:00:00 | 00:00:00 | 00:00:00 | |
| AA1-15 | 2026-08-31 12:14:57 | 54.88805 | 20.05393 | 83° | 93km/h | 436m | 8m/s | -51.2°C | 0% | 68hPa | 2.2V | 00:00:00 | 00:00:00 | 00:00:00 | |
| AA1-15 | 2026-08-31 12:14:56 | 54.88796 | 20.05312 | 78° | 95km/h | 416m | 8m/s | -51.2°C | 0% | 68.1hPa | 2.2V | 00:00:00 | 00:00:00 | 00:00:00 | |
| AA1-15 | 2026-08-31 12:14:53 | 54.88791 | 20.05273 | 78° | 95km/h | 401m | 8m/s | -51.2°C | 0% | 68.2hPa | 2.2V | 00:00:00 | 00:00:00 | 00:00:00 | |
| AA1-15 | 2026-08-31 12:14:50 | 54.88783 | 20.05199 | 76° | 93km/h | 367m | 8.1m/s | -51.3°C | 0% | 68.3hPa | 2.2V | 00:00:00 | 00:00:00 | 00:00:00 | |
| AA1-15 | 2026-08-31 12:14:48 | 54.88777 | 20.05127 | 71° | 97km/h | 346m | 7.9m/s | -51.3°C | 0% | 68.4hPa | 2.2V | 00:00:00 | 00:00:00 | 00:00:00 | |
| AA1-15 | 2026-08-31 12:14:46 | 54.88759 | 20.05047 | 65° | 99km/h | 334m | 8m/s | -51.2°C | 0% | 68.6hPa | 2.2V | 00:00:00 | 00:00:00 | 00:00:00 | |
| AA1-15 | 2026-08-31 12:14:44 | 54.88738 | 20.04969 | 67° | 97km/h | 321m | 7.9m/s | -51.1°C | 0% | 68.6hPa | 2.2V | 00:00:00 | 00:00:00 | 00:00:00 | |
| AA1-15 | 2026-08-31 12:14:43 | 54.88723 | 20.04929 | 64° | 97km/h | 314m | 7.7m/s | -51.1°C | 0% | 68.7hPa | 2.2V | 00:00:00 | 00:00:00 | 00:00:00 | |
| AA1-15 | 2026-08-31 12:14:41 | 54.88678 | 20.04841 | 61° | 97km/h | 298m | 8m/s | -51.1°C | 0% | 68.8hPa | 2.2V | 00:00:00 | 00:00:00 | 00:00:00 | |
| AA1-15 | 2026-08-31 12:14:33 | 54.85730 | 19.99774 | 0° | 0km/h | 159087m | 0m/s | -50.9°C | 0% | 69.3hPa | 2.2V | 00:00:00 | 00:00:00 | 00:00:00 | |
| AA1-15 | 2026-08-31 12:14:22 | 54.36606 | 19.86614 | 0° | 0km/h | 159087m | 0m/s | -50.9°C | 0% | 69.9hPa | 2.2V | 00:00:00 | 00:00:00 | 00:00:00 | |
| AA1-15 | 2026-08-31 12:14:12 | 55.88171 | 20.21325 | 69° | 64km/h | 159087m | 20.5m/s | -50.7°C | 0% | 70.5hPa | 2.2V | 00:00:00 | 00:00:00 | 00:00:00 | |
| AA1-15 | 2026-08-31 12:14:02 | 54.95113 | 19.26135 | 249° | 7km/h | 159087m | 5.3m/s | -50.4°C | 0% | 71hPa | 2.2V | 00:00:00 | 00:00:00 | 00:00:00 | |
| AA1-15 | 2026-08-31 12:13:50 | 54.95116 | 19.26195 | 270° | 13km/h | 2413m | 8m/s | -50.3°C | 0% | 71.8hPa | 2.2V | 00:00:00 | 00:00:00 | 00:00:00 | |
| AA1-15 | 2026-08-31 12:13:39 | 54.95134 | 19.26249 | 270° | 13km/h | 2332m | 7.8m/s | -50.4°C | 0% | 72.4hPa | 2.4V | 00:00:00 | 00:00:00 | 00:00:00 | |
| AA1-15 | 2026-08-31 12:13:28 | 54.95134 | 19.26344 | 269° | 13km/h | 2228m | 8.2m/s | -50.3°C | 0% | 73hPa | 2.4V | 00:00:00 | 00:00:00 | 00:00:00 | |
| AA1-15 | 2026-08-31 12:13:17 | 54.95138 | 19.26418 | 270° | 16km/h | 2118m | 8.1m/s | -50.1°C | 0% | 73.7hPa | 2.4V | 00:00:00 | 00:00:00 | 00:00:00 | |
| AA1-15 | 2026-08-31 12:13:03 | 54.95129 | 19.26491 | 271° | 13km/h | 1977m | 8.2m/s | -50.7°C | 0% | 74.3hPa | 2.4V | 00:00:00 | 00:00:00 | 00:00:00 | |
| AA1-15 | 2026-08-31 12:13:01 | 54.95129 | 19.26503 | 267° | 13km/h | 1959m | 8m/s | -50.7°C | 0% | 74.5hPa | 2.4V | 00:00:00 | 00:00:00 | 00:00:00 | |
| AA1-15 | 2026-08-31 12:13:00 | 54.95128 | 19.26505 | 270° | 13km/h | 1947m | 8m/s | -50.6°C | 0% | 74.6hPa | 2.4V | 00:00:00 | 00:00:00 | 00:00:00 | |
| AA1-15 | 2026-08-31 12:12:56 | 54.95129 | 19.26527 | 272° | 16km/h | 1925m | 8.4m/s | -50.5°C | 0% | 74.8hPa | 2.4V | 00:00:00 | 00:00:00 | 00:00:00 | |
| AA1-15 | 2026-08-31 12:12:54 | 54.95132 | 19.26537 | 270° | 15km/h | 1910m | 8m/s | -50.5°C | 0% | 75hPa | 2.4V | 00:00:00 | 00:00:00 | 00:00:00 | |
| AA1-15 | 2026-08-31 12:12:52 | 54.95132 | 19.26543 | 270° | 13km/h | 1901m | 8.1m/s | -50.5°C | 0% | 75hPa | 2.4V | 00:00:00 | 00:00:00 | 00:00:00 | |
| AA1-15 | 2026-08-31 12:12:51 | 54.95134 | 19.26549 | 270° | 13km/h | 1891m | 8m/s | -50.5°C | 0% | 75.1hPa | 2.4V | 00:00:00 | 00:00:00 | 00:00:00 | |
| AA1-15 | 2026-08-31 12:12:50 | 54.95135 | 19.26555 | 270° | 16km/h | 1883m | 8.1m/s | -50.5°C | 0% | 75.1hPa | 2.4V | 00:00:00 | 00:00:00 | 00:00:00 | |
| AA1-15 | 2026-08-31 12:12:30 | 54.95128 | 19.26720 | 272° | 15km/h | 1672m | 8.7m/s | -50°C | 0% | 76.3hPa | 2.4V | 00:00:00 | 00:00:00 | 00:00:00 | |
| AA1-15 | 2026-08-31 12:12:25 | 54.95136 | 19.26745 | 271° | 16km/h | 1648m | 8.2m/s | -49.9°C | 0% | 76.6hPa | 2.4V | 00:00:00 | 00:00:00 | 00:00:00 | |
| AA1-15 | 2026-08-31 12:12:23 | 54.95137 | 19.26750 | 271° | 13km/h | 1646m | 7.9m/s | -49.8°C | 0% | 76.7hPa | 2.4V | 00:00:00 | 00:00:00 | 00:00:00 | |
| AA1-15 | 2026-08-31 12:10:01 | 55.08232 | 19.72869 | 218° | 20km/h | 159087m | 8.7m/s | -50.6°C | 0% | 85.3hPa | 2.4V | 00:00:00 | 00:00:00 | 00:00:00 | |
| AA1-15 | 2026-08-31 12:09:31 | 55.08255 | 19.73054 | 270° | 16km/h | 2458m | 7.8m/s | -50.3°C | 0% | 87.2hPa | 2.4V | 00:00:00 | 00:00:00 | 00:00:00 | |
| AA1-15 | 2026-08-31 12:07:48 | 55.08239 | 19.73806 | 248° | 95km/h | 1617m | 8.1m/s | -49.7°C | 0% | 94.3hPa | 2.4V | 00:00:00 | 00:00:00 | 00:00:00 | |
| AA1-15 | 2026-08-31 12:07:41 | 55.08339 | 19.73997 | 212° | 100km/h | 1564m | 8.2m/s | -49.6°C | 0% | 94.8hPa | 2.4V | 00:00:00 | 00:00:00 | 00:00:00 | |
| AA1-15 | 2026-08-31 12:07:18 | 55.08680 | 19.73483 | 60° | 93km/h | 1337m | 8.2m/s | -49°C | 0% | 96.6hPa | 2.4V | 00:00:00 | 00:00:00 | 00:00:00 | |
| AA1-15 | 2026-08-31 12:07:13 | 55.08602 | 19.73376 | 36° | 91km/h | 1347m | 8.2m/s | -49.1°C | 0% | 96.8hPa | 2.4V | 00:00:00 | 00:00:00 | 00:00:00 | |
| AA1-15 | 2026-08-31 12:07:07 | 55.08485 | 19.73297 | 0° | 93km/h | 1362m | 8.1m/s | -48.9°C | 0% | 97.2hPa | 2.4V | 00:00:00 | 00:00:00 | 00:00:00 | |
| AA1-15 | 2026-08-31 12:06:56 | 55.08216 | 19.73300 | 360° | 93km/h | 1255m | 8.2m/s | -48.8°C | 0% | 98.1hPa | 2.4V | 00:00:00 | 00:00:00 | 00:00:00 | |
| AA1-15 | 2026-08-31 12:06:54 | 55.08165 | 19.73299 | 360° | 100km/h | 1214m | 8.7m/s | -48.9°C | 0% | 98.2hPa | 2.4V | 00:00:00 | 00:00:00 | 00:00:00 | |
| AA1-15 | 2026-08-31 12:06:52 | 55.08120 | 19.73292 | 360° | 100km/h | 1196m | 8.1m/s | -48.8°C | 0% | 98.3hPa | 2.4V | 00:00:00 | 00:00:00 | 00:00:00 | |
| AA1-15 | 2026-08-31 12:06:50 | 55.08071 | 19.73290 | 0° | 100km/h | 1175m | 8.5m/s | -48.8°C | 0% | 98.5hPa | 2.4V | 00:00:00 | 00:00:00 | 00:00:00 | |
| AA1-15 | 2026-08-31 12:06:48 | 55.08044 | 19.73292 | 0° | 91km/h | 1163m | 8.9m/s | -48.8°C | 0% | 98.6hPa | 2.4V | 00:00:00 | 00:00:00 | 00:00:00 | |
| AA1-15 | 2026-08-31 12:06:47 | 55.07979 | 19.73253 | 43° | 100km/h | 1135m | 8.1m/s | -48.9°C | 0% | 98.8hPa | 2.4V | 00:00:00 | 00:00:00 | 00:00:00 | |
| AA1-15 | 2026-08-31 12:06:45 | 55.07965 | 19.73216 | 59° | 97km/h | 1127m | 8m/s | -48.9°C | 0% | 98.9hPa | 2.4V | 00:00:00 | 00:00:00 | 00:00:00 | |
| AA1-15 | 2026-08-31 12:06:44 | 55.07957 | 19.73176 | 80° | 97km/h | 1115m | 8.3m/s | -48.8°C | 0% | 99hPa | 2.4V | 00:00:00 | 00:00:00 | 00:00:00 | |
| AA1-15 | 2026-08-31 12:06:43 | 55.07955 | 19.73132 | 100° | 97km/h | 1107m | 8.4m/s | -48.8°C | 0% | 99hPa | 2.4V | 00:00:00 | 00:00:00 | 00:00:00 | |
| AA1-15 | 2026-08-31 12:06:41 | 55.07971 | 19.73053 | 134° | 97km/h | 1098m | 8.1m/s | -48.8°C | 0% | 99.2hPa | 2.4V | 00:00:00 | 00:00:00 | 00:00:00 | |
| AA1-15 | 2026-08-31 12:06:39 | 55.08007 | 19.73016 | 171° | 97km/h | 1068m | 8.1m/s | -48.8°C | 0% | 99.3hPa | 2.4V | 00:00:00 | 00:00:00 | 00:00:00 | |
| AA1-15 | 2026-08-31 12:06:36 | 55.08073 | 19.73050 | 224° | 97km/h | 1025m | 7.9m/s | -48.9°C | 0% | 99.5hPa | 2.4V | 00:00:00 | 00:00:00 | 00:00:00 | |
| AA1-15 | 2026-08-31 12:06:34 | 55.08100 | 19.73122 | 262° | 97km/h | 1005m | 8.4m/s | -48.9°C | 0% | 99.7hPa | 2.4V | 00:00:00 | 00:00:00 | 00:00:00 | |
| AA1-15 | 2026-08-31 12:06:32 | 55.08106 | 19.73206 | 270° | 95km/h | 984m | 8m/s | -49°C | 0% | 99.8hPa | 2.4V | 00:00:00 | 00:00:00 | 00:00:00 | |
| AA1-15 | 2026-08-31 12:06:31 | 55.08107 | 19.73249 | 270° | 99km/h | 976m | 7.9m/s | -49°C | 0% | 99.9hPa | 2.4V | 00:00:00 | 00:00:00 | 00:00:00 | |
| AA1-15 | 2026-08-31 12:06:25 | 55.08100 | 19.73548 | 268° | 97km/h | 917m | 10.1m/s | -49.2°C | 0% | 100.4hPa | 2.4V | 00:00:00 | 00:00:00 | 00:00:00 | |
| AA1-15 | 2026-08-31 12:05:22 | 54.92107 | 19.89791 | 270° | 13km/h | 2404m | 8m/s | -49.3°C | 0% | 104.9hPa | 2.4V | 00:00:00 | 00:00:00 | 00:00:00 | |
| SP3BTT-10 | 2026-08-31 11:58:47 | 55.07561 | 18.06337 | 42° | 64km/h | 14234m | 5.5m/s | 0°C | 0% | 0hPa | 0V | 00:00:00 | 00:00:00 | 00:00:00 | |
| SP3BTT-10 | 2026-08-31 11:51:48 | 55.02742 | 17.95782 | 57° | 95km/h | 12149m | 4.5m/s | 0°C | 0% | 0hPa | 0V | 00:00:00 | 00:00:00 | 00:00:00 |